Wetterdaten: Mittwoch, 09.07.2014
Datum Zeit Temp. Aussen +5cm Feuchte Auss Luftdruck Regen Sonnenschein Regendauer UV Solar Windben
09.07.2014 00:00 12,6 C 11,7 C 98 % 1011,1 hPa 0,0 l/m 0 min 2 min 0,0 UV-I 0 W/m 14,6 km/h (3 Bft)
09.07.2014 00:02 12,7 C 11,7 C 98 % 1011,1 hPa 0,0 l/m 0 min 2 min 0,0 UV-I 0 W/m 12,6 km/h (3 Bft)
09.07.2014 00:05 12,7 C 11,7 C 98 % 1011,2 hPa 0,0 l/m 0 min 2 min 0,0 UV-I 0 W/m 10,5 km/h (2 Bft)
09.07.2014 00:06 12,7 C 11,7 C 98 % 1011,2 hPa 0,0 l/m 0 min 1 min 0,0 UV-I 0 W/m 10,5 km/h (2 Bft)
09.07.2014 00:08 12,7 C 11,7 C 98 % 1011,1 hPa 0,0 l/m 0 min 2 min 0,0 UV-I 0 W/m 20,9 km/h (4 Bft)
09.07.2014 00:10 12,7 C 11,7 C 98 % 1011,1 hPa 0,0 l/m 0 min 2 min 0,0 UV-I 0 W/m 16,7 km/h (3 Bft)
09.07.2014 00:12 12,7 C 11,7 C 98 % 1011,1 hPa 0,0 l/m 0 min 2 min 0,0 UV-I 0 W/m 12,6 km/h (3 Bft)
09.07.2014 00:14 12,7 C 11,7 C 98 % 1011,1 hPa 0,0 l/m 0 min 2 min 0,0 UV-I 0 W/m 14,6 km/h (3 Bft)
09.07.2014 00:16 12,6 C 11,7 C 98 % 1010,9 hPa 0,0 l/m 0 min 2 min 0,0 UV-I 0 W/m 16,7 km/h (3 Bft)
09.07.2014 00:18 12,6 C 11,7 C 98 % 1011,0 hPa 0,0 l/m 0 min 0 min 0,0 UV-I 0 W/m 12,6 km/h (3 Bft)
09.07.2014 00:20 12,7 C 11,7 C 98 % 1010,9 hPa 0,0 l/m 0 min 2 min 0,0 UV-I 0 W/m 10,5 km/h (2 Bft)
09.07.2014 00:22 12,6 C 11,7 C 98 % 1010,9 hPa 0,0 l/m 0 min 2 min 0,0 UV-I 0 W/m 12,6 km/h (3 Bft)
09.07.2014 00:24 12,6 C 11,7 C 98 % 1011,0 hPa 0,0 l/m 0 min 2 min 0,0 UV-I 0 W/m 16,7 km/h (3 Bft)
09.07.2014 00:26 12,5 C 11,7 C 98 % 1011,1 hPa 0,0 l/m 0 min 2 min 0,0 UV-I 0 W/m 14,6 km/h (3 Bft)
09.07.2014 00:28 12,4 C 11,7 C 98 % 1011,1 hPa 0,0 l/m 0 min 2 min 0,0 UV-I 0 W/m 16,7 km/h (3 Bft)
09.07.2014 00:30 12,4 C 11,7 C 98 % 1011,1 hPa 0,0 l/m 0 min 2 min 0,0 UV-I 0 W/m 16,7 km/h (3 Bft)
09.07.2014 00:32 12,4 C 11,7 C 98 % 1011,1 hPa 0,0 l/m 0 min 2 min 0,0 UV-I 0 W/m 12,6 km/h (3 Bft)
09.07.2014 00:34 12,4 C 11,7 C 98 % 1010,9 hPa 0,0 l/m 0 min 2 min 0,0 UV-I 0 W/m 12,6 km/h (3 Bft)
09.07.2014 00:36 12,4 C 11,7 C 98 % 1010,9 hPa 0,0 l/m 0 min 0 min 0,0 UV-I 0 W/m 8,4 km/h (2 Bft)
09.07.2014 00:38 12,4 C 11,7 C 98 % 1010,9 hPa 0,0 l/m 0 min 2 min 0,0 UV-I 0 W/m 10,5 km/h (2 Bft)
09.07.2014 00:40 12,4 C 11,7 C 98 % 1011,0 hPa 0,0 l/m 0 min 2 min 0,0 UV-I 0 W/m 10,5 km/h (2 Bft)
09.07.2014 00:42 12,4 C 11,7 C 98 % 1011,0 hPa 0,0 l/m 0 min 2 min 0,0 UV-I 0 W/m 8,4 km/h (2 Bft)
09.07.2014 00:44 12,4 C 11,7 C 98 % 1011,0 hPa 0,0 l/m 0 min 0 min 0,0 UV-I 0 W/m 6,3 km/h (2 Bft)
09.07.2014 00:46 12,4 C 11,7 C 98 % 1010,9 hPa 0,2 l/m 0 min 2 min 0,0 UV-I 0 W/m 4,2 km/h (1 Bft)
09.07.2014 00:48 12,4 C 11,7 C 98 % 1011,0 hPa 0,0 l/m 0 min 2 min 0,0 UV-I 0 W/m 8,4 km/h (2 Bft)
09.07.2014 00:50 12,4 C 11,7 C 98 % 1011,0 hPa 0,0 l/m 0 min 2 min 0,0 UV-I 0 W/m 4,2 km/h (1 Bft)
09.07.2014 00:52 12,4 C 11,7 C 98 % 1011,0 hPa 0,0 l/m 0 min 0 min 0,0 UV-I 0 W/m 8,4 km/h (2 Bft)
09.07.2014 00:54 12,5 C 11,7 C 98 % 1011,1 hPa 0,0 l/m 0 min 0 min 0,0 UV-I 0 W/m 6,3 km/h (2 Bft)
09.07.2014 00:56 12,5 C 11,7 C 98 % 1011,1 hPa 0,0 l/m 0 min 0 min 0,0 UV-I 0 W/m 6,3 km/h (2 Bft)
09.07.2014 00:58 12,4 C 11,7 C 98 % 1011,1 hPa 0,0 l/m 0 min 2 min 0,0 UV-I 0 W/m 6,3 km/h (2 Bft)
09.07.2014 01:00 12,5 C 11,7 C 98 % 1011,1 hPa 0,0 l/m 0 min 2 min 0,0 UV-I 0 W/m 8,4 km/h (2 Bft)
09.07.2014 01:02 12,5 C 11,7 C 98 % 1011,1 hPa 0,0 l/m 0 min 2 min 0,0 UV-I 0 W/m 0,0 km/h (0 Bft)
09.07.2014 01:04 12,5 C 11,7 C 98 % 1011,0 hPa 0,0 l/m 0 min 2 min 0,0 UV-I 0 W/m 4,2 km/h (1 Bft)
09.07.2014 01:06 12,6 C 11,7 C 98 % 1011,1 hPa 0,0 l/m 0 min 0 min 0,0 UV-I 0 W/m 12,6 km/h (3 Bft)
09.07.2014 01:08 12,6 C 11,7 C 98 % 1011,0 hPa 0,0 l/m 0 min 2 min 0,0 UV-I 0 W/m 12,6 km/h (3 Bft)
09.07.2014 01:10 12,6 C 11,7 C 98 % 1011,0 hPa 0,0 l/m 0 min 0 min 0,0 UV-I 0 W/m 10,5 km/h (2 Bft)
09.07.2014 01:12 12,6 C 11,7 C 98 % 1011,1 hPa 0,0 l/m 0 min 2 min 0,0 UV-I 0 W/m 10,5 km/h (2 Bft)
09.07.2014 01:14 12,7 C 11,7 C 98 % 1011,1 hPa 0,0 l/m 0 min 0 min 0,0 UV-I 0 W/m 8,4 km/h (2 Bft)
09.07.2014 01:16 12,7 C 11,7 C 98 % 1011,0 hPa 0,0 l/m 0 min 2 min 0,0 UV-I 0 W/m 6,3 km/h (2 Bft)
09.07.2014 01:18 12,7 C 11,7 C 98 % 1011,1 hPa 0,0 l/m 0 min 2 min 0,0 UV-I 0 W/m 6,3 km/h (2 Bft)
09.07.2014 01:20 12,7 C 11,7 C 98 % 1011,1 hPa 0,0 l/m 0 min 2 min 0,0 UV-I 0 W/m 0,0 km/h (0 Bft)
09.07.2014 01:22 12,7 C 11,7 C 98 % 1011,1 hPa 0,0 l/m 0 min 2 min 0,0 UV-I 0 W/m 12,6 km/h (3 Bft)
09.07.2014 01:24 12,7 C 11,7 C 98 % 1011,1 hPa 0,0 l/m 0 min 0 min 0,0 UV-I 0 W/m 8,4 km/h (2 Bft)
09.07.2014 01:26 12,7 C 11,7 C 98 % 1011,1 hPa 0,0 l/m 0 min 2 min 0,0 UV-I 0 W/m 8,4 km/h (2 Bft)
09.07.2014 01:28 12,7 C 11,7 C 98 % 1011,1 hPa 0,0 l/m 0 min 0 min 0,0 UV-I 0 W/m 8,4 km/h (2 Bft)
09.07.2014 01:30 12,7 C 11,7 C 98 % 1011,1 hPa 0,0 l/m 0 min 2 min 0,0 UV-I 0 W/m 6,3 km/h (2 Bft)
09.07.2014 01:32 12,7 C 11,7 C 98 % 1011,1 hPa 0,0 l/m 0 min 0 min 0,0 UV-I 0 W/m 8,4 km/h (2 Bft)
09.07.2014 01:34 12,7 C 11,7 C 98 % 1011,1 hPa 0,0 l/m 0 min 2 min 0,0 UV-I 0 W/m 12,6 km/h (3 Bft)
09.07.2014 01:36 12,7 C 11,7 C 98 % 1011,1 hPa 0,0 l/m 0 min 2 min 0,0 UV-I 0 W/m 14,6 km/h (3 Bft)
09.07.2014 01:38 12,7 C 11,7 C 98 % 1011,1 hPa 0,0 l/m 0 min 0 min 0,0 UV-I 0 W/m 8,4 km/h (2 Bft)
09.07.2014 01:40 12,7 C 11,7 C 98 % 1011,1 hPa 0,0 l/m 0 min 2 min 0,0 UV-I 0 W/m 8,4 km/h (2 Bft)
09.07.2014 01:42 12,7 C 11,7 C 99 % 1011,0 hPa 0,0 l/m 0 min 2 min 0,0 UV-I 0 W/m 8,4 km/h (2 Bft)
09.07.2014 01:44 12,7 C 11,7 C 99 % 1011,0 hPa 0,0 l/m 0 min 2 min 0,0 UV-I 0 W/m 10,5 km/h (2 Bft)
09.07.2014 01:46 12,7 C 11,7 C 99 % 1011,0 hPa 0,0 l/m 0 min 0 min 0,0 UV-I 0 W/m 10,5 km/h (2 Bft)
09.07.2014 01:48 12,8 C 11,7 C 99 % 1010,9 hPa 0,0 l/m 0 min 2 min 0,0 UV-I 0 W/m 10,5 km/h (2 Bft)
09.07.2014 01:50 12,8 C 11,7 C 98 % 1010,9 hPa 0,0 l/m 0 min 0 min 0,0 UV-I 0 W/m 0,0 km/h (0 Bft)
09.07.2014 01:52 12,7 C 11,7 C 98 % 1011,0 hPa 0,0 l/m 0 min 2 min 0,0 UV-I 0 W/m 4,2 km/h (1 Bft)
09.07.2014 01:54 12,7 C 11,7 C 98 % 1011,1 hPa 0,0 l/m 0 min 2 min 0,0 UV-I 0 W/m 6,3 km/h (2 Bft)
09.07.2014 01:56 12,7 C 11,7 C 98 % 1011,1 hPa 0,0 l/m 0 min 2 min 0,0 UV-I 0 W/m 10,5 km/h (2 Bft)
09.07.2014 01:58 12,8 C 11,7 C 98 % 1011,0 hPa 0,0 l/m 0 min 2 min 0,0 UV-I 0 W/m 4,2 km/h (1 Bft)
09.07.2014 02:00 12,8 C 11,7 C 98 % 1011,0 hPa 0,0 l/m 0 min 2 min 0,0 UV-I 0 W/m 10,5 km/h (2 Bft)
09.07.2014 02:02 12,8 C 11,7 C 98 % 1011,0 hPa 0,0 l/m 0 min 2 min 0,0 UV-I 0 W/m 8,4 km/h (2 Bft)
09.07.2014 02:04 12,8 C 11,7 C 98 % 1011,0 hPa 0,0 l/m 0 min 2 min 0,0 UV-I 0 W/m 0,0 km/h (0 Bft)
09.07.2014 02:06 12,8 C 11,7 C 98 % 1011,0 hPa 0,0 l/m 0 min 2 min 0,0 UV-I 0 W/m 8,4 km/h (2 Bft)
09.07.2014 02:08 12,7 C 11,7 C 98 % 1010,9 hPa 0,0 l/m 0 min 2 min 0,0 UV-I 0 W/m 14,6 km/h (3 Bft)
09.07.2014 02:10 12,7 C 11,7 C 99 % 1010,9 hPa 0,0 l/m 0 min 2 min 0,0 UV-I 0 W/m 10,5 km/h (2 Bft)
09.07.2014 02:12 12,7 C 11,7 C 98 % 1010,9 hPa 0,2 l/m 0 min 2 min 0,0 UV-I 0 W/m 10,5 km/h (2 Bft)
09.07.2014 02:14 12,7 C 11,7 C 99 % 1010,8 hPa 0,0 l/m 0 min 2 min 0,0 UV-I 0 W/m 12,6 km/h (3 Bft)
09.07.2014 02:16 12,7 C 11,7 C 99 % 1010,8 hPa 0,0 l/m 0 min 2 min 0,0 UV-I 0 W/m 10,5 km/h (2 Bft)
09.07.2014 02:18 12,7 C 11,7 C 99 % 1010,8 hPa 0,0 l/m 0 min 2 min 0,0 UV-I 0 W/m 10,5 km/h (2 Bft)
09.07.2014 02:20 12,7 C 11,7 C 99 % 1010,7 hPa 0,0 l/m 0 min 2 min 0,0 UV-I 0 W/m 6,3 km/h (2 Bft)
09.07.2014 02:22 12,7 C 11,7 C 99 % 1010,7 hPa 0,0 l/m 0 min 2 min 0,0 UV-I 0 W/m 18,8 km/h (3 Bft)
09.07.2014 02:24 12,7 C 11,7 C 99 % 1010,7 hPa 0,0 l/m 0 min 2 min 0,0 UV-I 0 W/m 12,6 km/h (3 Bft)
09.07.2014 02:26 12,7 C 11,7 C 99 % 1010,7 hPa 0,0 l/m 0 min 2 min 0,0 UV-I 0 W/m 8,4 km/h (2 Bft)
09.07.2014 02:28 12,7 C 11,7 C 99 % 1010,6 hPa 0,0 l/m 0 min 2 min 0,0 UV-I 0 W/m 12,6 km/h (3 Bft)
09.07.2014 02:30 12,7 C 11,7 C 99 % 1010,5 hPa 0,0 l/m 0 min 2 min 0,0 UV-I 0 W/m 16,7 km/h (3 Bft)
09.07.2014 02:32 12,6 C 11,7 C 99 % 1010,6 hPa 0,0 l/m 0 min 2 min 0,0 UV-I 0 W/m 12,6 km/h (3 Bft)
09.07.2014 02:34 12,6 C 11,7 C 99 % 1010,6 hPa 0,2 l/m 0 min 2 min 0,0 UV-I 0 W/m 8,4 km/h (2 Bft)
09.07.2014 02:36 12,6 C 11,7 C 99 % 1010,5 hPa 0,0 l/m 0 min 2 min 0,0 UV-I 0 W/m 14,6 km/h (3 Bft)
09.07.2014 02:38 12,6 C 11,7 C 99 % 1010,6 hPa 0,0 l/m 0 min 2 min 0,0 UV-I 0 W/m 14,6 km/h (3 Bft)
09.07.2014 02:40 12,6 C 11,7 C 99 % 1010,5 hPa 0,0 l/m 0 min 2 min 0,0 UV-I 0 W/m 10,5 km/h (2 Bft)
09.07.2014 02:42 12,6 C 11,7 C 99 % 1010,5 hPa 0,0 l/m 0 min 2 min 0,0 UV-I 0 W/m 16,7 km/h (3 Bft)
09.07.2014 02:44 12,5 C 11,7 C 99 % 1010,5 hPa 0,0 l/m 0 min 2 min 0,0 UV-I 0 W/m 12,6 km/h (3 Bft)
09.07.2014 02:46 12,5 C 11,7 C 99 % 1010,5 hPa 0,0 l/m 0 min 2 min 0,0 UV-I 0 W/m 16,7 km/h (3 Bft)
09.07.2014 02:48 12,5 C 11,7 C 99 % 1010,5 hPa 0,0 l/m 0 min 2 min 0,0 UV-I 0 W/m 12,6 km/h (3 Bft)
09.07.2014 02:50 12,5 C 11,7 C 99 % 1010,6 hPa 0,0 l/m 0 min 2 min 0,0 UV-I 0 W/m 10,5 km/h (2 Bft)
09.07.2014 02:52 12,5 C 11,7 C 99 % 1010,6 hPa 0,0 l/m 0 min 2 min 0,0 UV-I 0 W/m 14,6 km/h (3 Bft)
09.07.2014 02:54 12,4 C 11,7 C 99 % 1010,6 hPa 0,0 l/m 0 min 2 min 0,0 UV-I 0 W/m 10,5 km/h (2 Bft)
09.07.2014 02:56 12,5 C 11,7 C 99 % 1010,6 hPa 0,0 l/m 0 min 2 min 0,0 UV-I 0 W/m 14,6 km/h (3 Bft)
09.07.2014 02:58 12,4 C 11,7 C 99 % 1010,5 hPa 0,0 l/m 0 min 2 min 0,0 UV-I 0 W/m 18,8 km/h (3 Bft)
09.07.2014 03:00 12,4 C 11,7 C 99 % 1010,5 hPa 0,0 l/m 0 min 2 min 0,0 UV-I 0 W/m 14,6 km/h (3 Bft)
09.07.2014 03:02 12,4 C 11,7 C 99 % 1010,6 hPa 0,0 l/m 0 min 2 min 0,0 UV-I 0 W/m 14,6 km/h (3 Bft)
09.07.2014 03:04 12,4 C 11,7 C 99 % 1010,5 hPa 0,0 l/m 0 min 2 min 0,0 UV-I 0 W/m 14,6 km/h (3 Bft)
09.07.2014 03:06 12,4 C 11,7 C 99 % 1010,5 hPa 0,0 l/m 0 min 2 min 0,0 UV-I 0 W/m 18,8 km/h (3 Bft)
09.07.2014 03:08 12,4 C 11,7 C 99 % 1010,6 hPa 0,0 l/m 0 min 2 min 0,0 UV-I 0 W/m 10,5 km/h (2 Bft)
09.07.2014 03:10 12,4 C 11,7 C 99 % 1010,6 hPa 0,0 l/m 0 min 2 min 0,0 UV-I 0 W/m 8,4 km/h (2 Bft)
09.07.2014 03:12 12,4 C 11,7 C 99 % 1010,5 hPa 0,0 l/m 0 min 2 min 0,0 UV-I 0 W/m 16,7 km/h (3 Bft)
09.07.2014 03:14 12,4 C 11,7 C 99 % 1010,5 hPa 0,0 l/m 0 min 2 min 0,0 UV-I 0 W/m 16,7 km/h (3 Bft)
09.07.2014 03:16 12,4 C 11,7 C 99 % 1010,5 hPa 0,0 l/m 0 min 2 min 0,0 UV-I 0 W/m 16,7 km/h (3 Bft)
09.07.2014 03:18 12,4 C 11,7 C 99 % 1010,4 hPa 0,0 l/m 0 min 2 min 0,0 UV-I 0 W/m 16,7 km/h (3 Bft)
09.07.2014 03:20 12,3 C 11,7 C 99 % 1010,4 hPa 0,0 l/m 0 min 2 min 0,0 UV-I 0 W/m 16,7 km/h (3 Bft)
09.07.2014 03:22 12,4 C 11,7 C 99 % 1010,4 hPa 0,0 l/m 0 min 2 min 0,0 UV-I 0 W/m 12,6 km/h (3 Bft)
09.07.2014 03:24 12,3 C 11,7 C 99 % 1010,4 hPa 0,0 l/m 0 min 2 min 0,0 UV-I 0 W/m 12,6 km/h (3 Bft)
09.07.2014 03:26 12,3 C 11,7 C 99 % 1010,3 hPa 0,2 l/m 0 min 2 min 0,0 UV-I 0 W/m 14,6 km/h (3 Bft)
09.07.2014 03:28 12,4 C 11,7 C 99 % 1010,3 hPa 0,0 l/m 0 min 2 min 0,0 UV-I 0 W/m 10,5 km/h (2 Bft)
09.07.2014 03:30 12,4 C 11,7 C 99 % 1010,3 hPa 0,0 l/m 0 min 2 min 0,0 UV-I 0 W/m 12,6 km/h (3 Bft)
09.07.2014 03:32 12,4 C 11,7 C 99 % 1010,3 hPa 0,0 l/m 0 min 2 min 0,0 UV-I 0 W/m 12,6 km/h (3 Bft)
09.07.2014 03:34 12,4 C 11,7 C 99 % 1010,3 hPa 0,0 l/m 0 min 2 min 0,0 UV-I 0 W/m 20,9 km/h (4 Bft)
09.07.2014 03:36 12,4 C 11,7 C 99 % 1010,3 hPa 0,0 l/m 0 min 2 min 0,0 UV-I 0 W/m 16,7 km/h (3 Bft)
09.07.2014 03:38 12,4 C 11,7 C 99 % 1010,3 hPa 0,0 l/m 0 min 2 min 0,0 UV-I 0 W/m 16,7 km/h (3 Bft)
09.07.2014 03:40 12,4 C 11,7 C 99 % 1010,2 hPa 0,0 l/m 0 min 2 min 0,0 UV-I 0 W/m 14,6 km/h (3 Bft)
09.07.2014 03:42 12,4 C 11,7 C 99 % 1010,2 hPa 0,0 l/m 0 min 2 min 0,0 UV-I 0 W/m 14,6 km/h (3 Bft)
09.07.2014 03:44 12,4 C 11,7 C 99 % 1010,3 hPa 0,0 l/m 0 min 2 min 0,0 UV-I 0 W/m 16,7 km/h (3 Bft)
09.07.2014 03:46 12,4 C 11,7 C 99 % 1010,3 hPa 0,0 l/m 0 min 2 min 0,0 UV-I 0 W/m 14,6 km/h (3 Bft)
09.07.2014 03:48 12,4 C 11,7 C 99 % 1010,3 hPa 0,0 l/m 0 min 2 min 0,0 UV-I 0 W/m 12,6 km/h (3 Bft)
09.07.2014 03:50 12,4 C 11,7 C 99 % 1010,3 hPa 0,0 l/m 0 min 2 min 0,0 UV-I 0 W/m 12,6 km/h (3 Bft)
09.07.2014 03:52 12,4 C 11,7 C 99 % 1010,3 hPa 0,0 l/m 0 min 2 min 0,0 UV-I 0 W/m 18,8 km/h (3 Bft)
09.07.2014 03:54 12,4 C 11,7 C 99 % 1010,2 hPa 0,0 l/m 0 min 2 min 0,0 UV-I 0 W/m 12,6 km/h (3 Bft)
09.07.2014 03:56 12,4 C 11,7 C 99 % 1010,2 hPa 0,2 l/m 0 min 2 min 0,0 UV-I 0 W/m 18,8 km/h (3 Bft)
09.07.2014 03:58 12,4 C 11,7 C 99 % 1010,2 hPa 0,0 l/m 0 min 2 min 0,0 UV-I 0 W/m 12,6 km/h (3 Bft)
09.07.2014 04:00 12,4 C 11,7 C 99 % 1010,2 hPa 0,0 l/m 0 min 2 min 0,0 UV-I 0 W/m 10,5 km/h (2 Bft)
09.07.2014 04:02 12,4 C 11,7 C 99 % 1010,1 hPa 0,0 l/m 0 min 2 min 0,0 UV-I 0 W/m 18,8 km/h (3 Bft)
09.07.2014 04:04 12,4 C 11,7 C 99 % 1010,1 hPa 0,0 l/m 0 min 2 min 0,0 UV-I 0 W/m 23,0 km/h (4 Bft)
09.07.2014 04:06 12,4 C 11,7 C 99 % 1010,1 hPa 0,0 l/m 0 min 2 min 0,0 UV-I 0 W/m 20,9 km/h (4 Bft)
09.07.2014 04:08 12,4 C 11,7 C 99 % 1010,1 hPa 0,0 l/m 0 min 2 min 0,0 UV-I 0 W/m 16,7 km/h (3 Bft)
09.07.2014 04:10 12,4 C 11,7 C 99 % 1010,1 hPa 0,0 l/m 0 min 2 min 0,0 UV-I 0 W/m 25,1 km/h (4 Bft)
09.07.2014 04:12 12,4 C 11,7 C 99 % 1010,1 hPa 0,0 l/m 0 min 2 min 0,0 UV-I 0 W/m 20,9 km/h (4 Bft)
09.07.2014 04:14 12,4 C 11,7 C 99 % 1010,1 hPa 0,0 l/m 0 min 2 min 0,0 UV-I 0 W/m 12,6 km/h (3 Bft)
09.07.2014 04:16 12,4 C 11,7 C 99 % 1010,1 hPa 0,0 l/m 0 min 2 min 0,0 UV-I 0 W/m 20,9 km/h (4 Bft)
09.07.2014 04:18 12,4 C 11,7 C 99 % 1010,0 hPa 0,0 l/m 0 min 2 min 0,0 UV-I 0 W/m 16,7 km/h (3 Bft)
09.07.2014 04:20 12,3 C 11,7 C 99 % 1010,0 hPa 0,0 l/m 0 min 2 min 0,0 UV-I 0 W/m 16,7 km/h (3 Bft)
09.07.2014 04:22 12,4 C 11,7 C 99 % 1010,0 hPa 0,0 l/m 0 min 2 min 0,0 UV-I 0 W/m 25,1 km/h (4 Bft)
09.07.2014 04:24 12,3 C 11,7 C 99 % 1009,9 hPa 0,0 l/m 0 min 0 min 0,0 UV-I 0 W/m 16,7 km/h (3 Bft)
09.07.2014 04:26 12,3 C 11,7 C 99 % 1010,0 hPa 0,0 l/m 0 min 0 min 0,0 UV-I 0 W/m 18,8 km/h (3 Bft)
09.07.2014 04:28 12,3 C 11,7 C 99 % 1009,9 hPa 0,0 l/m 0 min 0 min 0,0 UV-I 0 W/m 12,6 km/h (3 Bft)
09.07.2014 04:30 12,3 C 11,7 C 99 % 1009,8 hPa 0,0 l/m 0 min 0 min 0,0 UV-I 0 W/m 16,7 km/h (3 Bft)
09.07.2014 04:32 12,3 C 11,7 C 99 % 1009,9 hPa 0,0 l/m 0 min 0 min 0,0 UV-I 0 W/m 12,6 km/h (3 Bft)
09.07.2014 04:34 12,3 C 11,7 C 99 % 1009,9 hPa 0,0 l/m 0 min 0 min 0,0 UV-I 0 W/m 14,6 km/h (3 Bft)
09.07.2014 04:36 12,3 C 11,7 C 99 % 1009,9 hPa 0,0 l/m 0 min 0 min 0,0 UV-I 0 W/m 12,6 km/h (3 Bft)
09.07.2014 04:38 12,3 C 11,7 C 99 % 1009,9 hPa 0,0 l/m 0 min 0 min 0,0 UV-I 0 W/m 14,6 km/h (3 Bft)
09.07.2014 04:40 12,3 C 11,7 C 99 % 1009,9 hPa 0,0 l/m 0 min 0 min 0,0 UV-I 0 W/m 10,5 km/h (2 Bft)
09.07.2014 04:42 12,2 C 11,7 C 99 % 1009,9 hPa 0,0 l/m 0 min 2 min 0,0 UV-I 0 W/m 14,6 km/h (3 Bft)
09.07.2014 04:44 12,2 C 11,7 C 99 % 1010,0 hPa 0,0 l/m 0 min 2 min 0,0 UV-I 0 W/m 12,6 km/h (3 Bft)
09.07.2014 04:46 12,2 C 11,7 C 99 % 1009,9 hPa 0,0 l/m 0 min 2 min 0,0 UV-I 0 W/m 14,6 km/h (3 Bft)
09.07.2014 04:48 12,2 C 11,7 C 99 % 1009,9 hPa 0,0 l/m 0 min 2 min 0,0 UV-I 0 W/m 16,7 km/h (3 Bft)
09.07.2014 04:50 12,2 C 11,1 C 99 % 1009,8 hPa 0,0 l/m 0 min 2 min 0,0 UV-I 0 W/m 18,8 km/h (3 Bft)
09.07.2014 04:52 12,2 C 11,1 C 99 % 1009,9 hPa 0,0 l/m 0 min 2 min 0,0 UV-I 0 W/m 12,6 km/h (3 Bft)
09.07.2014 04:54 12,2 C 11,1 C 99 % 1009,8 hPa 0,0 l/m 0 min 2 min 0,0 UV-I 0 W/m 20,9 km/h (4 Bft)
09.07.2014 04:56 12,2 C 11,1 C 99 % 1009,8 hPa 0,0 l/m 0 min 2 min 0,0 UV-I 0 W/m 20,9 km/h (4 Bft)
09.07.2014 04:58 12,2 C 11,1 C 99 % 1009,7 hPa 0,0 l/m 0 min 2 min 0,0 UV-I 0 W/m 18,8 km/h (3 Bft)
09.07.2014 05:00 12,1 C 11,1 C 99 % 1009,7 hPa 0,0 l/m 0 min 2 min 0,0 UV-I 0 W/m 18,8 km/h (3 Bft)
09.07.2014 05:02 12,1 C 11,1 C 99 % 1009,7 hPa 0,0 l/m 0 min 2 min 0,0 UV-I 0 W/m 12,6 km/h (3 Bft)
09.07.2014 05:04 12,1 C 11,1 C 99 % 1009,7 hPa 0,0 l/m 0 min 2 min 0,0 UV-I 0 W/m 14,6 km/h (3 Bft)
09.07.2014 05:06 12,1 C 11,1 C 99 % 1009,7 hPa 0,0 l/m 0 min 2 min 0,0 UV-I 0 W/m 18,8 km/h (3 Bft)
09.07.2014 05:08 12,1 C 11,1 C 99 % 1009,7 hPa 0,0 l/m 0 min 2 min 0,0 UV-I 0 W/m 12,6 km/h (3 Bft)
09.07.2014 05:10 12,1 C 11,1 C 99 % 1009,7 hPa 0,2 l/m 0 min 2 min 0,0 UV-I 0 W/m 18,8 km/h (3 Bft)
09.07.2014 05:12 12,1 C 11,1 C 99 % 1009,7 hPa 0,0 l/m 0 min 2 min 0,0 UV-I 0 W/m 25,1 km/h (4 Bft)
09.07.2014 05:14 12,1 C 11,1 C 99 % 1009,8 hPa 0,0 l/m 0 min 2 min 0,0 UV-I 0 W/m 25,1 km/h (4 Bft)
09.07.2014 05:16 12,1 C 11,1 C 99 % 1009,8 hPa 0,0 l/m 0 min 2 min 0,0 UV-I 0 W/m 23,0 km/h (4 Bft)
09.07.2014 05:18 12,0 C 11,1 C 99 % 1009,7 hPa 0,0 l/m 0 min 2 min 0,0 UV-I 0 W/m 16,7 km/h (3 Bft)
09.07.2014 05:20 12,1 C 11,1 C 99 % 1009,6 hPa 0,0 l/m 0 min 2 min 0,0 UV-I 0 W/m 14,6 km/h (3 Bft)
09.07.2014 05:22 12,1 C 11,1 C 99 % 1009,7 hPa 0,2 l/m 0 min 2 min 0,0 UV-I 0 W/m 18,8 km/h (3 Bft)
09.07.2014 05:24 12,0 C 11,1 C 99 % 1009,7 hPa 0,0 l/m 0 min 2 min 0,0 UV-I 0 W/m 20,9 km/h (4 Bft)
09.07.2014 05:26 12,0 C 11,1 C 99 % 1009,7 hPa 0,0 l/m 0 min 2 min 0,0 UV-I 0 W/m 14,6 km/h (3 Bft)
09.07.2014 05:28 12,0 C 11,1 C 99 % 1009,8 hPa 0,0 l/m 0 min 2 min 0,0 UV-I 0 W/m 20,9 km/h (4 Bft)
09.07.2014 05:30 12,0 C 11,1 C 99 % 1009,7 hPa 0,2 l/m 0 min 2 min 0,0 UV-I 0 W/m 18,8 km/h (3 Bft)
09.07.2014 05:32 12,0 C 11,1 C 99 % 1009,6 hPa 0,0 l/m 0 min 2 min 0,0 UV-I 0 W/m 16,7 km/h (3 Bft)
09.07.2014 05:34 12,0 C 11,1 C 99 % 1009,6 hPa 0,0 l/m 0 min 2 min 0,0 UV-I 0 W/m 12,6 km/h (3 Bft)
09.07.2014 05:36 12,0 C 11,1 C 99 % 1009,7 hPa 0,0 l/m 0 min 2 min 0,0 UV-I 0 W/m 10,5 km/h (2 Bft)
09.07.2014 05:38 12,0 C 11,1 C 99 % 1009,7 hPa 0,0 l/m 0 min 2 min 0,0 UV-I 0 W/m 14,6 km/h (3 Bft)
09.07.2014 05:40 12,0 C 11,1 C 99 % 1009,6 hPa 0,0 l/m 0 min 2 min 0,0 UV-I 0 W/m 14,6 km/h (3 Bft)
09.07.2014 05:42 12,0 C 11,1 C 99 % 1009,7 hPa 0,0 l/m 0 min 2 min 0,0 UV-I 0 W/m 23,0 km/h (4 Bft)
09.07.2014 05:44 12,0 C 11,1 C 99 % 1009,7 hPa 0,0 l/m 0 min 2 min 0,0 UV-I 0 W/m 12,6 km/h (3 Bft)
09.07.2014 05:46 12,0 C 11,1 C 99 % 1009,7 hPa 0,0 l/m 0 min 2 min 0,0 UV-I 0 W/m 10,5 km/h (2 Bft)
09.07.2014 05:48 12,0 C 11,1 C 99 % 1009,7 hPa 0,0 l/m 0 min 2 min 0,0 UV-I 0 W/m 16,7 km/h (3 Bft)
09.07.2014 05:50 12,0 C 11,1 C 99 % 1009,6 hPa 0,2 l/m 0 min 2 min 0,0 UV-I 0 W/m 20,9 km/h (4 Bft)
09.07.2014 05:52 12,0 C 11,1 C 99 % 1009,6 hPa 0,0 l/m 0 min 2 min 0,0 UV-I 0 W/m 18,8 km/h (3 Bft)
09.07.2014 05:54 12,0 C 11,1 C 99 % 1009,6 hPa 0,0 l/m 0 min 2 min 0,0 UV-I 0 W/m 20,9 km/h (4 Bft)
09.07.2014 05:56 12,0 C 11,1 C 99 % 1009,6 hPa 0,0 l/m 0 min 2 min 0,0 UV-I 0 W/m 12,6 km/h (3 Bft)
09.07.2014 05:58 12,0 C 11,1 C 99 % 1009,6 hPa 0,0 l/m 0 min 2 min 0,0 UV-I 0 W/m 20,9 km/h (4 Bft)
09.07.2014 06:00 12,0 C 11,1 C 99 % 1009,6 hPa 0,0 l/m 0 min 2 min 0,0 UV-I 0 W/m 16,7 km/h (3 Bft)
09.07.2014 06:02 12,1 C 11,1 C 99 % 1009,6 hPa 0,2 l/m 0 min 2 min 0,0 UV-I 5 W/m 16,7 km/h (3 Bft)
09.07.2014 06:05 12,1 C 11,1 C 99 % 1009,6 hPa 0,2 l/m 0 min 2 min 0,0 UV-I 0 W/m 23,0 km/h (4 Bft)
09.07.2014 06:06 12,1 C 11,1 C 99 % 1009,5 hPa 0,0 l/m 0 min 1 min 0,0 UV-I 0 W/m 20,9 km/h (4 Bft)
09.07.2014 06:08 12,1 C 11,1 C 99 % 1009,5 hPa 0,2 l/m 0 min 2 min 0,0 UV-I 0 W/m 16,7 km/h (3 Bft)
09.07.2014 06:10 12,1 C 11,1 C 99 % 1009,5 hPa 0,0 l/m 0 min 2 min 0,0 UV-I 0 W/m 14,6 km/h (3 Bft)
09.07.2014 06:12 12,1 C 11,1 C 99 % 1009,5 hPa 0,2 l/m 0 min 2 min 0,0 UV-I 0 W/m 12,6 km/h (3 Bft)
09.07.2014 06:14 12,1 C 11,1 C 99 % 1009,5 hPa 0,0 l/m 0 min 2 min 0,0 UV-I 0 W/m 16,7 km/h (3 Bft)
09.07.2014 06:16 12,1 C 11,1 C 99 % 1009,4 hPa 0,2 l/m 0 min 2 min 0,0 UV-I 0 W/m 12,6 km/h (3 Bft)
09.07.2014 06:18 12,1 C 11,1 C 99 % 1009,5 hPa 0,0 l/m 0 min 2 min 0,0 UV-I 0 W/m 14,6 km/h (3 Bft)
09.07.2014 06:20 12,1 C 11,1 C 99 % 1009,4 hPa 0,0 l/m 0 min 2 min 0,0 UV-I 0 W/m 12,6 km/h (3 Bft)
09.07.2014 06:22 12,1 C 11,1 C 99 % 1009,4 hPa 0,0 l/m 0 min 2 min 0,0 UV-I 5 W/m 14,6 km/h (3 Bft)
09.07.2014 06:24 12,1 C 11,1 C 99 % 1009,4 hPa 0,0 l/m 0 min 2 min 0,0 UV-I 7 W/m 12,6 km/h (3 Bft)
09.07.2014 06:26 12,1 C 11,1 C 99 % 1009,4 hPa 0,2 l/m 0 min 2 min 0,0 UV-I 7 W/m 14,6 km/h (3 Bft)
09.07.2014 06:28 12,1 C 11,1 C 99 % 1009,4 hPa 0,0 l/m 0 min 2 min 0,0 UV-I 7 W/m 14,6 km/h (3 Bft)
09.07.2014 06:30 12,1 C 11,1 C 99 % 1009,4 hPa 0,2 l/m 0 min 2 min 0,0 UV-I 11 W/m 12,6 km/h (3 Bft)
09.07.2014 06:32 12,1 C 11,1 C 99 % 1009,4 hPa 0,0 l/m 0 min 2 min 0,0 UV-I 9 W/m 14,6 km/h (3 Bft)
09.07.2014 06:34 12,1 C 11,1 C 99 % 1009,3 hPa 0,0 l/m 0 min 2 min 0,0 UV-I 11 W/m 16,7 km/h (3 Bft)
09.07.2014 06:36 12,2 C 11,1 C 99 % 1009,2 hPa 0,2 l/m 0 min 2 min 0,0 UV-I 11 W/m 14,6 km/h (3 Bft)
09.07.2014 06:38 12,2 C 11,1 C 99 % 1009,2 hPa 0,0 l/m 0 min 2 min 0,0 UV-I 12 W/m 14,6 km/h (3 Bft)
09.07.2014 06:40 12,2 C 11,1 C 99 % 1009,2 hPa 0,2 l/m 0 min 2 min 0,0 UV-I 11 W/m 18,8 km/h (3 Bft)
09.07.2014 06:42 12,2 C 11,1 C 99 % 1009,2 hPa 0,0 l/m 0 min 2 min 0,0 UV-I 14 W/m 12,6 km/h (3 Bft)
09.07.2014 06:44 12,2 C 11,1 C 99 % 1009,1 hPa 0,2 l/m 0 min 2 min 0,0 UV-I 14 W/m 25,1 km/h (4 Bft)
09.07.2014 06:46 12,2 C 11,1 C 99 % 1009,2 hPa 0,0 l/m 0 min 2 min 0,0 UV-I 14 W/m 20,9 km/h (4 Bft)
09.07.2014 06:48 12,2 C 11,7 C 99 % 1009,2 hPa 0,2 l/m 0 min 2 min 0,0 UV-I 16 W/m 18,8 km/h (3 Bft)
09.07.2014 06:50 12,2 C 11,1 C 99 % 1009,1 hPa 0,0 l/m 0 min 2 min 0,0 UV-I 16 W/m 14,6 km/h (3 Bft)
09.07.2014 06:52 12,2 C 11,7 C 99 % 1009,1 hPa 0,2 l/m 0 min 2 min 0,0 UV-I 16 W/m 16,7 km/h (3 Bft)
09.07.2014 06:54 12,2 C 11,7 C 99 % 1009,0 hPa 0,0 l/m 0 min 2 min 0,0 UV-I 12 W/m 16,7 km/h (3 Bft)
09.07.2014 06:56 12,2 C 11,7 C 99 % 1009,1 hPa 0,2 l/m 0 min 2 min 0,0 UV-I 12 W/m 16,7 km/h (3 Bft)
09.07.2014 06:58 12,2 C 11,7 C 99 % 1009,1 hPa 0,0 l/m 0 min 2 min 0,0 UV-I 11 W/m 10,5 km/h (2 Bft)
09.07.2014 07:00 12,2 C 11,7 C 99 % 1009,0 hPa 0,0 l/m 0 min 2 min 0,0 UV-I 9 W/m 23,0 km/h (4 Bft)
09.07.2014 07:02 12,2 C 11,7 C 99 % 1008,9 hPa 0,0 l/m 0 min 2 min 0,0 UV-I 11 W/m 18,8 km/h (3 Bft)
09.07.2014 07:04 12,3 C 11,7 C 99 % 1009,0 hPa 0,2 l/m 0 min 2 min 0,0 UV-I 11 W/m 25,1 km/h (4 Bft)
09.07.2014 07:06 12,2 C 11,1 C 99 % 1009,0 hPa 0,0 l/m 0 min 2 min 0,0 UV-I 11 W/m 18,8 km/h (3 Bft)
09.07.2014 07:08 12,2 C 11,7 C 99 % 1009,0 hPa 0,0 l/m 0 min 2 min 0,0 UV-I 11 W/m 14,6 km/h (3 Bft)
09.07.2014 07:10 12,2 C 11,1 C 99 % 1009,0 hPa 0,2 l/m 0 min 2 min 0,0 UV-I 11 W/m 14,6 km/h (3 Bft)
09.07.2014 07:12 12,2 C 11,7 C 99 % 1009,0 hPa 0,0 l/m 0 min 2 min 0,0 UV-I 12 W/m 18,8 km/h (3 Bft)
09.07.2014 07:14 12,3 C 11,7 C 99 % 1009,0 hPa 0,0 l/m 0 min 2 min 0,0 UV-I 12 W/m 14,6 km/h (3 Bft)
09.07.2014 07:16 12,3 C 11,7 C 99 % 1009,0 hPa 0,0 l/m 0 min 2 min 0,0 UV-I 16 W/m 23,0 km/h (4 Bft)
09.07.2014 07:18 12,3 C 11,7 C 99 % 1009,0 hPa 0,2 l/m 0 min 2 min 0,0 UV-I 18 W/m 25,1 km/h (4 Bft)
09.07.2014 07:20 12,3 C 11,7 C 99 % 1008,9 hPa 0,0 l/m 0 min 2 min 0,0 UV-I 16 W/m 18,8 km/h (3 Bft)
09.07.2014 07:22 12,3 C 11,7 C 99 % 1008,9 hPa 0,0 l/m 0 min 2 min 0,0 UV-I 16 W/m 23,0 km/h (4 Bft)
09.07.2014 07:24 12,3 C 11,7 C 99 % 1008,9 hPa 0,0 l/m 0 min 2 min 0,0 UV-I 14 W/m 23,0 km/h (4 Bft)
09.07.2014 07:26 12,3 C 11,7 C 99 % 1008,9 hPa 0,2 l/m 0 min 2 min 0,0 UV-I 14 W/m 23,0 km/h (4 Bft)
09.07.2014 07:28 12,3 C 11,7 C 99 % 1008,8 hPa 0,0 l/m 0 min 2 min 0,0 UV-I 14 W/m 27,2 km/h (4 Bft)
09.07.2014 07:30 12,3 C 11,7 C 99 % 1008,8 hPa 0,0 l/m 0 min 2 min 0,0 UV-I 16 W/m 20,9 km/h (4 Bft)
09.07.2014 07:32 12,3 C 11,7 C 99 % 1008,8 hPa 0,0 l/m 0 min 2 min 0,0 UV-I 16 W/m 23,0 km/h (4 Bft)
09.07.2014 07:34 12,3 C 11,7 C 99 % 1008,8 hPa 0,2 l/m 0 min 2 min 0,0 UV-I 18 W/m 20,9 km/h (4 Bft)
09.07.2014 07:36 12,3 C 11,7 C 99 % 1008,8 hPa 0,0 l/m 0 min 2 min 0,0 UV-I 16 W/m 29,3 km/h (5 Bft)
09.07.2014 07:38 12,3 C 11,7 C 99 % 1008,9 hPa 0,0 l/m 0 min 2 min 0,0 UV-I 19 W/m 18,8 km/h (3 Bft)
09.07.2014 07:40 12,3 C 11,7 C 99 % 1008,8 hPa 0,2 l/m 0 min 2 min 0,0 UV-I 16 W/m 12,6 km/h (3 Bft)
09.07.2014 07:42 12,3 C 11,7 C 99 % 1008,8 hPa 0,0 l/m 0 min 2 min 0,0 UV-I 19 W/m 25,1 km/h (4 Bft)
09.07.2014 07:44 12,3 C 11,7 C 99 % 1008,7 hPa 0,0 l/m 0 min 2 min 0,0 UV-I 19 W/m 20,9 km/h (4 Bft)
09.07.2014 07:46 12,3 C 11,7 C 99 % 1008,7 hPa 0,0 l/m 0 min 2 min 0,0 UV-I 18 W/m 25,1 km/h (4 Bft)
09.07.2014 07:48 12,3 C 11,7 C 99 % 1008,7 hPa 0,2 l/m 0 min 2 min 0,0 UV-I 18 W/m 16,7 km/h (3 Bft)
09.07.2014 07:50 12,3 C 11,7 C 99 % 1008,7 hPa 0,0 l/m 0 min 2 min 0,0 UV-I 19 W/m 23,0 km/h (4 Bft)
09.07.2014 07:52 12,4 C 11,7 C 99 % 1008,6 hPa 0,2 l/m 0 min 2 min 0,0 UV-I 21 W/m 14,6 km/h (3 Bft)
09.07.2014 07:54 12,4 C 11,7 C 99 % 1008,6 hPa 0,0 l/m 0 min 2 min 0,0 UV-I 23 W/m 18,8 km/h (3 Bft)
09.07.2014 07:56 12,4 C 11,7 C 99 % 1008,6 hPa 0,0 l/m 0 min 2 min 0,0 UV-I 19 W/m 20,9 km/h (4 Bft)
09.07.2014 07:58 12,4 C 11,7 C 99 % 1008,5 hPa 0,0 l/m 0 min 2 min 0,0 UV-I 18 W/m 14,6 km/h (3 Bft)
09.07.2014 08:00 12,4 C 11,7 C 99 % 1008,6 hPa 0,2 l/m 0 min 2 min 0,0 UV-I 19 W/m 12,6 km/h (3 Bft)
09.07.2014 08:02 12,4 C 11,7 C 99 % 1008,5 hPa 0,0 l/m 0 min 2 min 0,0 UV-I 25 W/m 20,9 km/h (4 Bft)
09.07.2014 08:04 12,4 C 11,7 C 99 % 1008,5 hPa 0,0 l/m 0 min 2 min 0,0 UV-I 28 W/m 18,8 km/h (3 Bft)
09.07.2014 08:06 12,4 C 11,7 C 99 % 1008,5 hPa 0,2 l/m 0 min 2 min 0,0 UV-I 26 W/m 25,1 km/h (4 Bft)
09.07.2014 08:08 12,4 C 11,7 C 99 % 1008,4 hPa 0,0 l/m 0 min 2 min 0,0 UV-I 30 W/m 29,3 km/h (5 Bft)
09.07.2014 08:10 12,5 C 11,7 C 99 % 1008,4 hPa 0,0 l/m 0 min 2 min 0,0 UV-I 30 W/m 18,8 km/h (3 Bft)
09.07.2014 08:12 12,5 C 11,7 C 99 % 1008,4 hPa 0,2 l/m 0 min 2 min 0,0 UV-I 28 W/m 23,0 km/h (4 Bft)
09.07.2014 08:14 12,5 C 11,7 C 99 % 1008,4 hPa 0,0 l/m 0 min 2 min 0,0 UV-I 25 W/m 14,6 km/h (3 Bft)
09.07.2014 08:16 12,5 C 11,7 C 99 % 1008,4 hPa 0,0 l/m 0 min 2 min 0,0 UV-I 28 W/m 14,6 km/h (3 Bft)
09.07.2014 08:18 12,5 C 11,7 C 99 % 1008,5 hPa 0,2 l/m 0 min 2 min 0,0 UV-I 30 W/m 23,0 km/h (4 Bft)
09.07.2014 08:20 12,5 C 11,7 C 99 % 1008,5 hPa 0,0 l/m 0 min 2 min 0,0 UV-I 28 W/m 33,5 km/h (5 Bft)
09.07.2014 08:22 12,6 C 11,7 C 99 % 1008,4 hPa 0,0 l/m 0 min 2 min 0,0 UV-I 42 W/m 23,0 km/h (4 Bft)
09.07.2014 08:24 12,6 C 11,7 C 99 % 1008,4 hPa 0,0 l/m 0 min 2 min 0,0 UV-I 44 W/m 20,9 km/h (4 Bft)
09.07.2014 08:26 12,6 C 11,7 C 99 % 1008,4 hPa 0,2 l/m 0 min 2 min 0,0 UV-I 39 W/m 20,9 km/h (4 Bft)
09.07.2014 08:28 12,6 C 11,7 C 99 % 1008,4 hPa 0,0 l/m 0 min 2 min 0,0 UV-I 30 W/m 29,3 km/h (5 Bft)
09.07.2014 08:30 12,6 C 11,7 C 99 % 1008,4 hPa 0,0 l/m 0 min 2 min 0,0 UV-I 28 W/m 18,8 km/h (3 Bft)
09.07.2014 08:32 12,6 C 11,7 C 99 % 1008,4 hPa 0,2 l/m 0 min 2 min 0,0 UV-I 26 W/m 23,0 km/h (4 Bft)
09.07.2014 08:34 12,6 C 11,7 C 99 % 1008,3 hPa 0,0 l/m 0 min 2 min 0,0 UV-I 23 W/m 25,1 km/h (4 Bft)
09.07.2014 08:36 12,6 C 11,7 C 99 % 1008,3 hPa 0,0 l/m 0 min 2 min 0,0 UV-I 23 W/m 20,9 km/h (4 Bft)
09.07.2014 08:38 12,6 C 11,7 C 99 % 1008,3 hPa 0,2 l/m 0 min 2 min 0,0 UV-I 30 W/m 23,0 km/h (4 Bft)
09.07.2014 08:40 12,6 C 11,7 C 99 % 1008,2 hPa 0,0 l/m 0 min 2 min 0,0 UV-I 33 W/m 23,0 km/h (4 Bft)
09.07.2014 08:42 12,6 C 11,7 C 99 % 1008,2 hPa 0,2 l/m 0 min 2 min 0,0 UV-I 37 W/m 14,6 km/h (3 Bft)
09.07.2014 08:44 12,6 C 11,7 C 99 % 1008,2 hPa 0,0 l/m 0 min 2 min 0,0 UV-I 39 W/m 20,9 km/h (4 Bft)
09.07.2014 08:46 12,6 C 11,7 C 99 % 1008,2 hPa 0,2 l/m 0 min 2 min 0,0 UV-I 35 W/m 25,1 km/h (4 Bft)
09.07.2014 08:48 12,6 C 11,7 C 99 % 1008,2 hPa 0,0 l/m 0 min 2 min 0,0 UV-I 35 W/m 20,9 km/h (4 Bft)
09.07.2014 08:50 12,6 C 11,7 C 99 % 1008,2 hPa 0,2 l/m 0 min 2 min 0,0 UV-I 33 W/m 29,3 km/h (5 Bft)
09.07.2014 08:52 12,6 C 11,7 C 99 % 1008,2 hPa 0,0 l/m 0 min 2 min 0,0 UV-I 33 W/m 27,2 km/h (4 Bft)
09.07.2014 08:54 12,6 C 11,7 C 99 % 1008,2 hPa 0,2 l/m 0 min 2 min 0,0 UV-I 32 W/m 16,7 km/h (3 Bft)
09.07.2014 08:56 12,6 C 11,7 C 99 % 1008,1 hPa 0,2 l/m 0 min 2 min 0,0 UV-I 25 W/m 18,8 km/h (3 Bft)
09.07.2014 08:58 12,7 C 11,7 C 99 % 1008,1 hPa 0,0 l/m 0 min 2 min 0,0 UV-I 25 W/m 18,8 km/h (3 Bft)
09.07.2014 09:00 12,7 C 11,7 C 99 % 1008,2 hPa 0,2 l/m 0 min 2 min 0,0 UV-I 26 W/m 27,2 km/h (4 Bft)
09.07.2014 09:02 12,6 C 11,7 C 99 % 1008,2 hPa 0,0 l/m 0 min 2 min 0,0 UV-I 30 W/m 25,1 km/h (4 Bft)
09.07.2014 09:04 12,6 C 11,7 C 99 % 1008,1 hPa 0,2 l/m 0 min 2 min 0,0 UV-I 33 W/m 27,2 km/h (4 Bft)
09.07.2014 09:06 12,7 C 11,7 C 99 % 1008,1 hPa 0,0 l/m 0 min 2 min 0,0 UV-I 35 W/m 25,1 km/h (4 Bft)
09.07.2014 09:08 12,7 C 11,7 C 99 % 1008,1 hPa 0,2 l/m 0 min 2 min 0,0 UV-I 33 W/m 18,8 km/h (3 Bft)
09.07.2014 09:10 12,7 C 11,7 C 99 % 1008,0 hPa 0,2 l/m 0 min 2 min 0,0 UV-I 30 W/m 23,0 km/h (4 Bft)
09.07.2014 09:12 12,7 C 11,7 C 99 % 1008,0 hPa 0,0 l/m 0 min 2 min 0,0 UV-I 32 W/m 25,1 km/h (4 Bft)
09.07.2014 09:14 12,7 C 11,7 C 99 % 1008,0 hPa 0,2 l/m 0 min 2 min 0,0 UV-I 32 W/m 18,8 km/h (3 Bft)
09.07.2014 09:16 12,7 C 11,7 C 99 % 1007,9 hPa 0,0 l/m 0 min 2 min 0,0 UV-I 32 W/m 27,2 km/h (4 Bft)
09.07.2014 09:18 12,7 C 11,7 C 99 % 1007,9 hPa 0,2 l/m 0 min 2 min 0,0 UV-I 32 W/m 20,9 km/h (4 Bft)
09.07.2014 09:20 12,7 C 11,7 C 99 % 1007,8 hPa 0,0 l/m 0 min 2 min 0,0 UV-I 33 W/m 27,2 km/h (4 Bft)
09.07.2014 09:22 12,7 C 11,7 C 99 % 1007,8 hPa 0,2 l/m 0 min 2 min 0,0 UV-I 33 W/m 18,8 km/h (3 Bft)
09.07.2014 09:24 12,7 C 11,7 C 99 % 1007,7 hPa 0,2 l/m 0 min 2 min 0,0 UV-I 40 W/m 31,4 km/h (5 Bft)
09.07.2014 09:26 12,7 C 11,7 C 99 % 1007,7 hPa 0,0 l/m 0 min 2 min 0,0 UV-I 47 W/m 35,6 km/h (5 Bft)
09.07.2014 09:28 12,7 C 11,7 C 99 % 1007,5 hPa 0,2 l/m 0 min 2 min 0,0 UV-I 44 W/m 12,6 km/h (3 Bft)
09.07.2014 09:30 12,6 C 11,7 C 99 % 1007,5 hPa 0,2 l/m 0 min 2 min 0,0 UV-I 44 W/m 35,6 km/h (5 Bft)
09.07.2014 09:32 12,6 C 11,7 C 99 % 1007,4 hPa 0,0 l/m 0 min 2 min 0,0 UV-I 44 W/m 27,2 km/h (4 Bft)
09.07.2014 09:34 12,6 C 11,7 C 99 % 1007,5 hPa 0,2 l/m 0 min 2 min 0,0 UV-I 39 W/m 25,1 km/h (4 Bft)
09.07.2014 09:36 12,6 C 11,7 C 99 % 1007,5 hPa 0,0 l/m 0 min 2 min 0,0 UV-I 47 W/m 23,0 km/h (4 Bft)
09.07.2014 09:38 12,6 C 11,7 C 99 % 1007,3 hPa 0,2 l/m 0 min 2 min 0,0 UV-I 54 W/m 23,0 km/h (4 Bft)
09.07.2014 09:40 12,6 C 11,7 C 99 % 1007,3 hPa 0,0 l/m 0 min 2 min 0,0 UV-I 60 W/m 31,4 km/h (5 Bft)
09.07.2014 09:42 12,6 C 11,7 C 99 % 1007,3 hPa 0,0 l/m 0 min 2 min 0,0 UV-I 63 W/m 31,4 km/h (5 Bft)
09.07.2014 09:44 12,6 C 11,7 C 99 % 1007,3 hPa 0,2 l/m 0 min 2 min 0,0 UV-I 54 W/m 25,1 km/h (4 Bft)
09.07.2014 09:46 12,6 C 11,7 C 99 % 1007,3 hPa 0,2 l/m 0 min 2 min 0,0 UV-I 54 W/m 23,0 km/h (4 Bft)
09.07.2014 09:48 12,6 C 11,7 C 99 % 1007,3 hPa 0,0 l/m 0 min 2 min 0,0 UV-I 47 W/m 31,4 km/h (5 Bft)
09.07.2014 09:50 12,6 C 11,7 C 99 % 1007,3 hPa 0,2 l/m 0 min 2 min 0,0 UV-I 42 W/m 20,9 km/h (4 Bft)
09.07.2014 09:52 12,6 C 11,7 C 99 % 1007,2 hPa 0,2 l/m 0 min 2 min 0,0 UV-I 44 W/m 33,5 km/h (5 Bft)
09.07.2014 09:54 12,6 C 11,7 C 99 % 1007,2 hPa 0,0 l/m 0 min 2 min 0,0 UV-I 37 W/m 23,0 km/h (4 Bft)
09.07.2014 09:56 12,6 C 11,7 C 99 % 1007,1 hPa 0,2 l/m 0 min 2 min 0,0 UV-I 37 W/m 35,6 km/h (5 Bft)
09.07.2014 09:58 12,6 C 11,7 C 99 % 1007,2 hPa 0,0 l/m 0 min 2 min 0,0 UV-I 33 W/m 20,9 km/h (4 Bft)
09.07.2014 10:00 12,6 C 11,7 C 99 % 1007,1 hPa 0,2 l/m 0 min 2 min 0,0 UV-I 33 W/m 33,5 km/h (5 Bft)
09.07.2014 10:02 12,6 C 11,7 C 99 % 1007,1 hPa 0,0 l/m 0 min 2 min 0,0 UV-I 35 W/m 33,5 km/h (5 Bft)
09.07.2014 10:04 12,6 C 11,7 C 99 % 1007,1 hPa 0,0 l/m 0 min 2 min 0,0 UV-I 37 W/m 25,1 km/h (4 Bft)
09.07.2014 10:06 12,6 C 11,7 C 99 % 1007,1 hPa 0,2 l/m 0 min 2 min 0,0 UV-I 42 W/m 29,3 km/h (5 Bft)
09.07.2014 10:08 12,7 C 11,7 C 99 % 1007,1 hPa 0,0 l/m 0 min 2 min 0,0 UV-I 39 W/m 29,3 km/h (5 Bft)
09.07.2014 10:10 12,7 C 11,7 C 99 % 1007,2 hPa 0,2 l/m 0 min 2 min 0,0 UV-I 37 W/m 20,9 km/h (4 Bft)
09.07.2014 10:12 12,7 C 11,7 C 99 % 1007,3 hPa 0,0 l/m 0 min 2 min 0,0 UV-I 44 W/m 25,1 km/h (4 Bft)
09.07.2014 10:14 12,7 C 11,7 C 99 % 1007,3 hPa 0,2 l/m 0 min 2 min 0,0 UV-I 47 W/m 25,1 km/h (4 Bft)
09.07.2014 10:16 12,7 C 11,7 C 99 % 1007,3 hPa 0,2 l/m 0 min 2 min 0,0 UV-I 37 W/m 20,9 km/h (4 Bft)
09.07.2014 10:18 12,7 C 11,7 C 99 % 1007,3 hPa 0,0 l/m 0 min 2 min 0,0 UV-I 37 W/m 20,9 km/h (4 Bft)
09.07.2014 10:20 12,7 C 11,7 C 99 % 1007,4 hPa 0,2 l/m 0 min 2 min 0,0 UV-I 32 W/m 14,6 km/h (3 Bft)
09.07.2014 10:22 12,7 C 11,7 C 99 % 1007,4 hPa 0,2 l/m 0 min 2 min 0,0 UV-I 28 W/m 20,9 km/h (4 Bft)
09.07.2014 10:24 12,7 C 11,7 C 99 % 1007,4 hPa 0,0 l/m 0 min 2 min 0,0 UV-I 28 W/m 23,0 km/h (4 Bft)
09.07.2014 10:26 12,7 C 11,7 C 99 % 1007,3 hPa 0,4 l/m 0 min 2 min 0,0 UV-I 25 W/m 23,0 km/h (4 Bft)
09.07.2014 10:28 12,7 C 11,7 C 99 % 1007,3 hPa 0,0 l/m 0 min 2 min 0,0 UV-I 25 W/m 23,0 km/h (4 Bft)
09.07.2014 10:30 12,7 C 11,7 C 99 % 1007,2 hPa 0,4 l/m 0 min 2 min 0,0 UV-I 25 W/m 29,3 km/h (5 Bft)
09.07.2014 10:32 12,7 C 11,7 C 99 % 1007,2 hPa 0,2 l/m 0 min 2 min 0,0 UV-I 25 W/m 20,9 km/h (4 Bft)
09.07.2014 10:34 12,7 C 11,7 C 99 % 1007,2 hPa 0,2 l/m 0 min 2 min 0,0 UV-I 28 W/m 20,9 km/h (4 Bft)
09.07.2014 10:36 12,7 C 11,7 C 99 % 1007,1 hPa 0,2 l/m 0 min 2 min 0,0 UV-I 33 W/m 31,4 km/h (5 Bft)
09.07.2014 10:38 12,7 C 11,7 C 99 % 1007,0 hPa 0,2 l/m 0 min 2 min 0,0 UV-I 33 W/m 31,4 km/h (5 Bft)
09.07.2014 10:40 12,7 C 11,7 C 99 % 1007,0 hPa 0,2 l/m 0 min 2 min 0,0 UV-I 35 W/m 25,1 km/h (4 Bft)
09.07.2014 10:42 12,7 C 11,7 C 99 % 1006,9 hPa 0,2 l/m 0 min 2 min 0,0 UV-I 46 W/m 23,0 km/h (4 Bft)
09.07.2014 10:44 12,7 C 11,7 C 99 % 1006,9 hPa 0,4 l/m 0 min 2 min 0,0 UV-I 49 W/m 25,1 km/h (4 Bft)
09.07.2014 10:46 12,7 C 11,7 C 99 % 1006,8 hPa 0,4 l/m 0 min 2 min 0,0 UV-I 51 W/m 23,0 km/h (4 Bft)
09.07.2014 10:48 12,7 C 11,7 C 99 % 1006,8 hPa 0,2 l/m 0 min 2 min 0,0 UV-I 40 W/m 18,8 km/h (3 Bft)
09.07.2014 10:50 12,8 C 11,7 C 99 % 1006,8 hPa 0,4 l/m 0 min 2 min 0,0 UV-I 42 W/m 20,9 km/h (4 Bft)
09.07.2014 10:52 12,8 C 11,7 C 99 % 1006,8 hPa 0,2 l/m 0 min 2 min 0,0 UV-I 44 W/m 39,7 km/h (6 Bft)
09.07.2014 10:54 12,8 C 11,7 C 99 % 1006,8 hPa 0,2 l/m 0 min 2 min 0,0 UV-I 42 W/m 16,7 km/h (3 Bft)
09.07.2014 10:56 12,8 C 11,7 C 99 % 1006,8 hPa 0,0 l/m 0 min 2 min 0,0 UV-I 42 W/m 25,1 km/h (4 Bft)
09.07.2014 10:58 12,8 C 11,7 C 99 % 1006,8 hPa 0,2 l/m 0 min 2 min 0,0 UV-I 39 W/m 18,8 km/h (3 Bft)
09.07.2014 11:00 12,8 C 11,7 C 99 % 1006,8 hPa 0,0 l/m 0 min 2 min 0,0 UV-I 39 W/m 20,9 km/h (4 Bft)
09.07.2014 11:02 12,8 C 11,7 C 99 % 1006,8 hPa 0,2 l/m 0 min 2 min 0,0 UV-I 47 W/m 25,1 km/h (4 Bft)
09.07.2014 11:04 12,8 C 11,7 C 99 % 1006,7 hPa 0,2 l/m 0 min 2 min 0,0 UV-I 51 W/m 25,1 km/h (4 Bft)
09.07.2014 11:06 12,8 C 11,7 C 99 % 1006,7 hPa 0,0 l/m 0 min 2 min 0,0 UV-I 47 W/m 18,8 km/h (3 Bft)
09.07.2014 11:08 12,8 C 11,7 C 99 % 1006,6 hPa 0,2 l/m 0 min 2 min 0,0 UV-I 51 W/m 27,2 km/h (4 Bft)
09.07.2014 11:10 12,8 C 11,7 C 99 % 1006,6 hPa 0,2 l/m 0 min 2 min 0,0 UV-I 56 W/m 23,0 km/h (4 Bft)
09.07.2014 11:12 12,9 C 12,2 C 99 % 1006,5 hPa 0,2 l/m 0 min 2 min 0,0 UV-I 81 W/m 27,2 km/h (4 Bft)
09.07.2014 11:14 12,9 C 12,2 C 99 % 1006,5 hPa 0,2 l/m 0 min 2 min 0,0 UV-I 98 W/m 20,9 km/h (4 Bft)
09.07.2014 11:16 12,9 C 12,2 C 99 % 1006,3 hPa 0,0 l/m 0 min 2 min 0,0 UV-I 88 W/m 23,0 km/h (4 Bft)
09.07.2014 11:18 13,0 C 12,2 C 99 % 1006,4 hPa 0,2 l/m 0 min 2 min 0,0 UV-I 83 W/m 23,0 km/h (4 Bft)
09.07.2014 11:20 13,0 C 12,2 C 99 % 1006,3 hPa 0,0 l/m 0 min 2 min 0,0 UV-I 84 W/m 33,5 km/h (5 Bft)
09.07.2014 11:22 13,1 C 12,2 C 99 % 1006,3 hPa 0,2 l/m 0 min 2 min 0,0 UV-I 79 W/m 23,0 km/h (4 Bft)
09.07.2014 11:24 13,1 C 12,2 C 99 % 1006,4 hPa 0,0 l/m 0 min 2 min 0,0 UV-I 79 W/m 27,2 km/h (4 Bft)
09.07.2014 11:26 13,0 C 12,2 C 99 % 1006,3 hPa 0,2 l/m 0 min 2 min 0,0 UV-I 81 W/m 23,0 km/h (4 Bft)
09.07.2014 11:28 13,1 C 12,2 C 99 % 1006,3 hPa 0,0 l/m 0 min 2 min 0,0 UV-I 76 W/m 25,1 km/h (4 Bft)
09.07.2014 11:30 13,1 C 12,2 C 99 % 1006,3 hPa 0,0 l/m 0 min 2 min 0,0 UV-I 72 W/m 27,2 km/h (4 Bft)
09.07.2014 11:32 13,1 C 12,2 C 99 % 1006,2 hPa 0,2 l/m 0 min 2 min 0,0 UV-I 63 W/m 29,3 km/h (5 Bft)
09.07.2014 11:34 13,1 C 12,2 C 99 % 1006,2 hPa 0,0 l/m 0 min 2 min 0,0 UV-I 54 W/m 23,0 km/h (4 Bft)
09.07.2014 11:36 13,1 C 12,2 C 99 % 1006,2 hPa 0,0 l/m 0 min 2 min 0,0 UV-I 54 W/m 23,0 km/h (4 Bft)
09.07.2014 11:38 13,1 C 12,2 C 99 % 1006,2 hPa 0,0 l/m 0 min 2 min 0,0 UV-I 60 W/m 23,0 km/h (4 Bft)
09.07.2014 11:40 13,1 C 12,2 C 99 % 1006,2 hPa 0,2 l/m 0 min 2 min 0,0 UV-I 53 W/m 18,8 km/h (3 Bft)
09.07.2014 11:42 13,1 C 12,2 C 99 % 1006,2 hPa 0,0 l/m 0 min 2 min 0,0 UV-I 49 W/m 27,2 km/h (4 Bft)
09.07.2014 11:44 13,1 C 12,2 C 99 % 1006,0 hPa 0,0 l/m 0 min 2 min 0,0 UV-I 51 W/m 33,5 km/h (5 Bft)
09.07.2014 11:46 13,1 C 12,2 C 99 % 1006,1 hPa 0,0 l/m 0 min 2 min 0,0 UV-I 51 W/m 33,5 km/h (5 Bft)
09.07.2014 11:48 13,1 C 12,2 C 99 % 1006,1 hPa 0,0 l/m 0 min 2 min 0,0 UV-I 53 W/m 31,4 km/h (5 Bft)
09.07.2014 11:50 13,1 C 12,2 C 99 % 1006,0 hPa 0,0 l/m 0 min 2 min 0,0 UV-I 49 W/m 39,7 km/h (6 Bft)
09.07.2014 11:52 13,2 C 12,2 C 99 % 1006,0 hPa 0,0 l/m 0 min 2 min 0,0 UV-I 51 W/m 25,1 km/h (4 Bft)
09.07.2014 11:54 13,2 C 12,2 C 99 % 1005,9 hPa 0,0 l/m 0 min 2 min 0,0 UV-I 54 W/m 18,8 km/h (3 Bft)
09.07.2014 11:56 13,2 C 12,2 C 99 % 1005,9 hPa 0,0 l/m 0 min 2 min 0,0 UV-I 54 W/m 23,0 km/h (4 Bft)
09.07.2014 11:58 13,2 C 12,2 C 99 % 1005,8 hPa 0,0 l/m 0 min 2 min 0,0 UV-I 58 W/m 20,9 km/h (4 Bft)
09.07.2014 12:00 13,2 C 12,2 C 99 % 1005,8 hPa 0,2 l/m 0 min 2 min 0,0 UV-I 58 W/m 20,9 km/h (4 Bft)
09.07.2014 12:02 13,2 C 12,2 C 99 % 1005,7 hPa 0,0 l/m 0 min 2 min 0,0 UV-I 60 W/m 37,7 km/h (5 Bft)
09.07.2014 12:05 13,3 C 12,2 C 99 % 1005,7 hPa 0,0 l/m 0 min 2 min 0,0 UV-I 77 W/m 29,3 km/h (5 Bft)
09.07.2014 12:06 13,3 C 12,2 C 99 % 1005,7 hPa 0,0 l/m 0 min 1 min 0,0 UV-I 72 W/m 23,0 km/h (4 Bft)
09.07.2014 12:08 13,3 C 12,2 C 99 % 1005,6 hPa 0,0 l/m 0 min 2 min 0,0 UV-I 63 W/m 27,2 km/h (4 Bft)
09.07.2014 12:10 13,3 C 12,2 C 99 % 1005,6 hPa 0,0 l/m 0 min 2 min 0,0 UV-I 62 W/m 35,6 km/h (5 Bft)
09.07.2014 12:12 13,3 C 12,2 C 99 % 1005,6 hPa 0,0 l/m 0 min 2 min 0,0 UV-I 88 W/m 20,9 km/h (4 Bft)
09.07.2014 12:14 13,4 C 12,2 C 99 % 1005,5 hPa 0,0 l/m 0 min 2 min 0,0 UV-I 91 W/m 27,2 km/h (4 Bft)
09.07.2014 12:16 13,4 C 12,8 C 99 % 1005,4 hPa 0,0 l/m 0 min 2 min 0,0 UV-I 86 W/m 29,3 km/h (5 Bft)
09.07.2014 12:18 13,4 C 12,8 C 99 % 1005,4 hPa 0,2 l/m 0 min 2 min 0,0 UV-I 77 W/m 23,0 km/h (4 Bft)
09.07.2014 12:20 13,4 C 12,8 C 99 % 1005,4 hPa 0,0 l/m 0 min 2 min 0,0 UV-I 70 W/m 33,5 km/h (5 Bft)
09.07.2014 12:22 13,4 C 12,8 C 99 % 1005,5 hPa 0,0 l/m 0 min 2 min 0,0 UV-I 74 W/m 31,4 km/h (5 Bft)
09.07.2014 12:24 13,4 C 12,8 C 99 % 1005,4 hPa 0,0 l/m 0 min 2 min 0,0 UV-I 79 W/m 31,4 km/h (5 Bft)
09.07.2014 12:26 13,5 C 12,8 C 99 % 1005,4 hPa 0,0 l/m 0 min 2 min 0,0 UV-I 93 W/m 27,2 km/h (4 Bft)
09.07.2014 12:28 13,5 C 12,8 C 99 % 1005,4 hPa 0,0 l/m 0 min 2 min 0,0 UV-I 90 W/m 29,3 km/h (5 Bft)
09.07.2014 12:30 13,5 C 12,8 C 99 % 1005,4 hPa 0,0 l/m 0 min 2 min 0,0 UV-I 84 W/m 29,3 km/h (5 Bft)
09.07.2014 12:32 13,6 C 12,8 C 99 % 1005,4 hPa 0,0 l/m 0 min 2 min 0,0 UV-I 79 W/m 20,9 km/h (4 Bft)
09.07.2014 12:34 13,6 C 12,8 C 99 % 1005,4 hPa 0,2 l/m 0 min 2 min 0,0 UV-I 67 W/m 27,2 km/h (4 Bft)
09.07.2014 12:36 13,6 C 12,8 C 99 % 1005,4 hPa 0,0 l/m 0 min 2 min 0,0 UV-I 69 W/m 20,9 km/h (4 Bft)
09.07.2014 12:38 13,6 C 12,8 C 99 % 1005,4 hPa 0,0 l/m 0 min 2 min 0,0 UV-I 62 W/m 27,2 km/h (4 Bft)
09.07.2014 12:40 13,6 C 12,8 C 99 % 1005,4 hPa 0,0 l/m 0 min 2 min 0,0 UV-I 63 W/m 20,9 km/h (4 Bft)
09.07.2014 12:42 13,6 C 12,8 C 99 % 1005,4 hPa 0,2 l/m 0 min 2 min 0,0 UV-I 63 W/m 25,1 km/h (4 Bft)
09.07.2014 12:44 13,7 C 12,8 C 100 % 1005,4 hPa 0,0 l/m 0 min 2 min 0,0 UV-I 76 W/m 20,9 km/h (4 Bft)
09.07.2014 12:46 13,7 C 12,8 C 100 % 1005,3 hPa 0,0 l/m 0 min 2 min 0,0 UV-I 72 W/m 27,2 km/h (4 Bft)
09.07.2014 12:48 13,7 C 12,8 C 100 % 1005,4 hPa 0,2 l/m 0 min 2 min 0,0 UV-I 77 W/m 18,8 km/h (3 Bft)
09.07.2014 12:50 13,7 C 12,8 C 100 % 1005,4 hPa 0,0 l/m 0 min 2 min 0,0 UV-I 76 W/m 27,2 km/h (4 Bft)
09.07.2014 12:52 13,7 C 12,8 C 100 % 1005,3 hPa 0,0 l/m 0 min 2 min 0,0 UV-I 81 W/m 18,8 km/h (3 Bft)
09.07.2014 12:54 13,7 C 12,8 C 100 % 1005,3 hPa 0,2 l/m 0 min 2 min 0,0 UV-I 84 W/m 27,2 km/h (4 Bft)
09.07.2014 12:56 13,8 C 12,8 C 100 % 1005,3 hPa 0,2 l/m 0 min 2 min 0,0 UV-I 81 W/m 20,9 km/h (4 Bft)
09.07.2014 12:58 13,8 C 12,8 C 100 % 1005,3 hPa 0,0 l/m 0 min 2 min 0,0 UV-I 88 W/m 27,2 km/h (4 Bft)
09.07.2014 13:00 13,8 C 12,8 C 100 % 1005,2 hPa 0,0 l/m 0 min 2 min 0,0 UV-I 95 W/m 23,0 km/h (4 Bft)
09.07.2014 13:02 13,8 C 12,8 C 99 % 1005,0 hPa 0,2 l/m 0 min 2 min 0,0 UV-I 97 W/m 18,8 km/h (3 Bft)
09.07.2014 13:04 13,9 C 12,8 C 99 % 1005,1 hPa 0,2 l/m 0 min 2 min 0,0 UV-I 81 W/m 20,9 km/h (4 Bft)
09.07.2014 13:06 13,9 C 12,8 C 99 % 1005,0 hPa 0,0 l/m 0 min 2 min 0,0 UV-I 83 W/m 16,7 km/h (3 Bft)
09.07.2014 13:08 13,9 C 12,8 C 99 % 1005,0 hPa 0,2 l/m 0 min 2 min 0,0 UV-I 76 W/m 23,0 km/h (4 Bft)
09.07.2014 13:10 13,9 C 12,8 C 99 % 1005,0 hPa 0,0 l/m 0 min 2 min 0,0 UV-I 63 W/m 20,9 km/h (4 Bft)
09.07.2014 13:12 13,9 C 12,8 C 99 % 1004,9 hPa 0,2 l/m 0 min 2 min 0,0 UV-I 56 W/m 25,1 km/h (4 Bft)
09.07.2014 13:14 13,9 C 12,8 C 99 % 1004,9 hPa 0,0 l/m 0 min 2 min 0,0 UV-I 62 W/m 20,9 km/h (4 Bft)
09.07.2014 13:16 13,9 C 12,8 C 99 % 1004,9 hPa 0,0 l/m 0 min 2 min 0,0 UV-I 60 W/m 18,8 km/h (3 Bft)
09.07.2014 13:18 13,9 C 12,8 C 99 % 1004,9 hPa 0,2 l/m 0 min 2 min 0,0 UV-I 70 W/m 20,9 km/h (4 Bft)
09.07.2014 13:20 13,9 C 12,8 C 99 % 1004,9 hPa 0,0 l/m 0 min 2 min 0,0 UV-I 67 W/m 25,1 km/h (4 Bft)
09.07.2014 13:22 13,9 C 12,8 C 99 % 1004,9 hPa 0,0 l/m 0 min 2 min 0,0 UV-I 74 W/m 31,4 km/h (5 Bft)
09.07.2014 13:24 14,0 C 12,8 C 100 % 1004,8 hPa 0,0 l/m 0 min 2 min 0,0 UV-I 65 W/m 25,1 km/h (4 Bft)
09.07.2014 13:26 14,1 C 13,3 C 100 % 1004,9 hPa 0,2 l/m 0 min 2 min 0,0 UV-I 74 W/m 27,2 km/h (4 Bft)
09.07.2014 13:28 14,1 C 13,3 C 100 % 1004,9 hPa 0,0 l/m 0 min 2 min 0,0 UV-I 81 W/m 23,0 km/h (4 Bft)
09.07.2014 13:30 14,1 C 12,8 C 100 % 1004,9 hPa 0,0 l/m 0 min 2 min 0,0 UV-I 76 W/m 23,0 km/h (4 Bft)
09.07.2014 13:32 14,2 C 13,3 C 100 % 1005,0 hPa 0,0 l/m 0 min 2 min 0,0 UV-I 72 W/m 18,8 km/h (3 Bft)
09.07.2014 13:34 14,2 C 13,3 C 100 % 1005,0 hPa 0,4 l/m 0 min 2 min 0,0 UV-I 65 W/m 20,9 km/h (4 Bft)
09.07.2014 13:36 14,2 C 13,3 C 100 % 1005,0 hPa 0,2 l/m 0 min 2 min 0,0 UV-I 65 W/m 14,6 km/h (3 Bft)
09.07.2014 13:38 14,2 C 13,3 C 100 % 1005,0 hPa 0,2 l/m 0 min 2 min 0,0 UV-I 74 W/m 29,3 km/h (5 Bft)
09.07.2014 13:40 14,2 C 13,3 C 100 % 1005,0 hPa 0,4 l/m 0 min 2 min 0,0 UV-I 72 W/m 23,0 km/h (4 Bft)
09.07.2014 13:42 14,2 C 13,3 C 100 % 1004,9 hPa 0,0 l/m 0 min 2 min 0,0 UV-I 65 W/m 18,8 km/h (3 Bft)
09.07.2014 13:44 14,2 C 13,3 C 100 % 1005,0 hPa 0,0 l/m 0 min 2 min 0,0 UV-I 56 W/m 14,6 km/h (3 Bft)
09.07.2014 13:46 14,2 C 13,3 C 100 % 1005,0 hPa 0,0 l/m 0 min 2 min 0,0 UV-I 51 W/m 14,6 km/h (3 Bft)
09.07.2014 13:48 14,2 C 13,3 C 100 % 1005,0 hPa 0,2 l/m 0 min 2 min 0,0 UV-I 51 W/m 10,5 km/h (2 Bft)
09.07.2014 13:50 14,2 C 13,3 C 100 % 1005,0 hPa 0,0 l/m 0 min 2 min 0,0 UV-I 63 W/m 23,0 km/h (4 Bft)
09.07.2014 13:52 14,2 C 13,3 C 100 % 1005,0 hPa 0,0 l/m 0 min 2 min 0,0 UV-I 60 W/m 12,6 km/h (3 Bft)
09.07.2014 13:54 14,2 C 13,3 C 100 % 1004,9 hPa 0,0 l/m 0 min 2 min 0,0 UV-I 56 W/m 18,8 km/h (3 Bft)
09.07.2014 13:56 14,3 C 13,3 C 100 % 1004,9 hPa 0,2 l/m 0 min 2 min 0,0 UV-I 65 W/m 12,6 km/h (3 Bft)
09.07.2014 13:58 14,3 C 13,3 C 100 % 1004,9 hPa 0,0 l/m 0 min 2 min 0,0 UV-I 69 W/m 10,5 km/h (2 Bft)
09.07.2014 14:00 14,3 C 13,3 C 100 % 1004,9 hPa 0,2 l/m 0 min 2 min 0,0 UV-I 65 W/m 16,7 km/h (3 Bft)
09.07.2014 14:02 14,4 C 13,3 C 100 % 1004,8 hPa 0,2 l/m 0 min 2 min 0,0 UV-I 74 W/m 25,1 km/h (4 Bft)
09.07.2014 14:04 14,4 C 13,3 C 100 % 1004,8 hPa 0,0 l/m 0 min 2 min 0,0 UV-I 84 W/m 14,6 km/h (3 Bft)
09.07.2014 14:06 14,4 C 13,3 C 100 % 1004,8 hPa 0,2 l/m 0 min 2 min 0,0 UV-I 97 W/m 14,6 km/h (3 Bft)
09.07.2014 14:08 14,4 C 13,9 C 100 % 1004,7 hPa 0,2 l/m 0 min 2 min 0,0 UV-I 104 W/m 16,7 km/h (3 Bft)
09.07.2014 14:10 14,5 C 13,9 C 100 % 1004,7 hPa 0,2 l/m 0 min 2 min 0,0 UV-I 100 W/m 16,7 km/h (3 Bft)
09.07.2014 14:12 14,5 C 13,9 C 100 % 1004,7 hPa 0,0 l/m 0 min 2 min 0,0 UV-I 102 W/m 16,7 km/h (3 Bft)
09.07.2014 14:14 14,5 C 13,9 C 100 % 1004,7 hPa 0,0 l/m 0 min 2 min 0,0 UV-I 98 W/m 14,6 km/h (3 Bft)
09.07.2014 14:16 14,6 C 13,9 C 100 % 1004,7 hPa 0,2 l/m 0 min 2 min 0,0 UV-I 91 W/m 16,7 km/h (3 Bft)
09.07.2014 14:18 14,6 C 13,9 C 100 % 1004,7 hPa 0,0 l/m 0 min 2 min 0,0 UV-I 81 W/m 23,0 km/h (4 Bft)
09.07.2014 14:20 14,6 C 13,9 C 100 % 1004,7 hPa 0,0 l/m 0 min 2 min 0,0 UV-I 83 W/m 12,6 km/h (3 Bft)
09.07.2014 14:22 14,6 C 13,9 C 100 % 1004,7 hPa 0,0 l/m 0 min 2 min 0,0 UV-I 81 W/m 14,6 km/h (3 Bft)
09.07.2014 14:24 14,7 C 13,9 C 100 % 1004,8 hPa 0,0 l/m 0 min 2 min 0,0 UV-I 70 W/m 20,9 km/h (4 Bft)
09.07.2014 14:26 14,7 C 13,9 C 100 % 1004,7 hPa 0,0 l/m 0 min 2 min 0,0 UV-I 69 W/m 12,6 km/h (3 Bft)
09.07.2014 14:28 14,7 C 13,9 C 100 % 1004,7 hPa 0,0 l/m 0 min 2 min 0,0 UV-I 70 W/m 18,8 km/h (3 Bft)
09.07.2014 14:30 14,7 C 13,9 C 100 % 1004,7 hPa 0,2 l/m 0 min 2 min 0,0 UV-I 65 W/m 16,7 km/h (3 Bft)
09.07.2014 14:32 14,7 C 13,9 C 100 % 1004,7 hPa 0,0 l/m 0 min 2 min 0,0 UV-I 70 W/m 16,7 km/h (3 Bft)
09.07.2014 14:34 14,7 C 13,9 C 100 % 1004,7 hPa 0,0 l/m 0 min 2 min 0,0 UV-I 79 W/m 16,7 km/h (3 Bft)
09.07.2014 14:36 14,7 C 13,9 C 100 % 1004,6 hPa 0,0 l/m 0 min 2 min 0,0 UV-I 74 W/m 14,6 km/h (3 Bft)
09.07.2014 14:38 14,7 C 13,9 C 100 % 1004,6 hPa 0,0 l/m 0 min 2 min 0,0 UV-I 72 W/m 14,6 km/h (3 Bft)
09.07.2014 14:40 14,8 C 13,9 C 100 % 1004,7 hPa 0,0 l/m 0 min 2 min 0,0 UV-I 72 W/m 18,8 km/h (3 Bft)
09.07.2014 14:42 14,7 C 13,9 C 100 % 1004,7 hPa 0,0 l/m 0 min 2 min 0,0 UV-I 79 W/m 18,8 km/h (3 Bft)
09.07.2014 14:44 14,8 C 13,9 C 100 % 1004,6 hPa 0,2 l/m 0 min 2 min 0,0 UV-I 77 W/m 14,6 km/h (3 Bft)
09.07.2014 14:46 14,8 C 13,9 C 100 % 1004,6 hPa 0,0 l/m 0 min 2 min 0,0 UV-I 76 W/m 25,1 km/h (4 Bft)
09.07.2014 14:48 14,8 C 13,9 C 100 % 1004,7 hPa 0,0 l/m 0 min 2 min 0,0 UV-I 76 W/m 14,6 km/h (3 Bft)
09.07.2014 14:50 14,8 C 13,9 C 100 % 1004,6 hPa 0,0 l/m 0 min 2 min 0,0 UV-I 69 W/m 16,7 km/h (3 Bft)
09.07.2014 14:52 14,9 C 13,9 C 100 % 1004,6 hPa 0,2 l/m 0 min 2 min 0,0 UV-I 69 W/m 16,7 km/h (3 Bft)
09.07.2014 14:54 14,9 C 13,9 C 100 % 1004,6 hPa 0,0 l/m 0 min 2 min 0,0 UV-I 60 W/m 8,4 km/h (2 Bft)
09.07.2014 14:56 14,9 C 13,9 C 100 % 1004,6 hPa 0,0 l/m 0 min 2 min 0,0 UV-I 60 W/m 23,0 km/h (4 Bft)
09.07.2014 14:58 14,9 C 13,9 C 100 % 1004,6 hPa 0,0 l/m 0 min 2 min 0,0 UV-I 54 W/m 16,7 km/h (3 Bft)
09.07.2014 15:00 14,9 C 13,9 C 100 % 1004,6 hPa 0,0 l/m 0 min 2 min 0,0 UV-I 56 W/m 18,8 km/h (3 Bft)
09.07.2014 15:02 14,9 C 13,9 C 100 % 1004,6 hPa 0,0 l/m 0 min 2 min 0,0 UV-I 49 W/m 16,7 km/h (3 Bft)
09.07.2014 15:04 14,9 C 13,9 C 100 % 1004,6 hPa 0,0 l/m 0 min 2 min 0,0 UV-I 49 W/m 16,7 km/h (3 Bft)
09.07.2014 15:06 15,0 C 13,9 C 100 % 1004,6 hPa 0,2 l/m 0 min 2 min 0,0 UV-I 51 W/m 16,7 km/h (3 Bft)
09.07.2014 15:08 15,0 C 13,9 C 100 % 1004,5 hPa 0,0 l/m 0 min 2 min 0,0 UV-I 54 W/m 10,5 km/h (2 Bft)
09.07.2014 15:10 15,1 C 13,9 C 100 % 1004,5 hPa 0,0 l/m 0 min 0 min 0,0 UV-I 54 W/m 14,6 km/h (3 Bft)
09.07.2014 15:12 15,1 C 13,9 C 100 % 1004,5 hPa 0,0 l/m 0 min 0 min 0,0 UV-I 51 W/m 12,6 km/h (3 Bft)
09.07.2014 15:14 15,1 C 13,9 C 100 % 1004,6 hPa 0,0 l/m 0 min 2 min 0,0 UV-I 51 W/m 10,5 km/h (2 Bft)
09.07.2014 15:16 15,1 C 13,9 C 100 % 1004,6 hPa 0,0 l/m 0 min 2 min 0,0 UV-I 53 W/m 12,6 km/h (3 Bft)
09.07.2014 15:18 15,1 C 13,9 C 100 % 1004,6 hPa 0,0 l/m 0 min 2 min 0,0 UV-I 54 W/m 16,7 km/h (3 Bft)
09.07.2014 15:20 15,1 C 13,9 C 100 % 1004,6 hPa 0,2 l/m 0 min 2 min 0,0 UV-I 51 W/m 12,6 km/h (3 Bft)
09.07.2014 15:22 15,1 C 13,9 C 100 % 1004,5 hPa 0,2 l/m 0 min 2 min 0,0 UV-I 49 W/m 12,6 km/h (3 Bft)
09.07.2014 15:24 15,1 C 13,9 C 100 % 1004,6 hPa 0,0 l/m 0 min 2 min 0,0 UV-I 58 W/m 16,7 km/h (3 Bft)
09.07.2014 15:26 15,2 C 13,9 C 100 % 1004,6 hPa 0,2 l/m 0 min 2 min 0,0 UV-I 63 W/m 8,4 km/h (2 Bft)
09.07.2014 15:28 15,2 C 14,4 C 100 % 1004,6 hPa 0,2 l/m 0 min 2 min 0,0 UV-I 65 W/m 6,3 km/h (2 Bft)
09.07.2014 15:30 15,2 C 14,4 C 100 % 1004,5 hPa 0,0 l/m 0 min 2 min 0,0 UV-I 62 W/m 14,6 km/h (3 Bft)
09.07.2014 15:32 15,2 C 14,4 C 100 % 1004,6 hPa 0,2 l/m 0 min 2 min 0,0 UV-I 63 W/m 14,6 km/h (3 Bft)
09.07.2014 15:34 15,2 C 14,4 C 100 % 1004,6 hPa 0,0 l/m 0 min 2 min 0,0 UV-I 56 W/m 8,4 km/h (2 Bft)
09.07.2014 15:36 15,3 C 14,4 C 100 % 1004,6 hPa 0,2 l/m 0 min 2 min 0,0 UV-I 56 W/m 10,5 km/h (2 Bft)
09.07.2014 15:38 15,3 C 14,4 C 100 % 1004,6 hPa 0,0 l/m 0 min 2 min 0,0 UV-I 60 W/m 8,4 km/h (2 Bft)
09.07.2014 15:40 15,3 C 14,4 C 100 % 1004,6 hPa 0,2 l/m 0 min 2 min 0,0 UV-I 60 W/m 12,6 km/h (3 Bft)
09.07.2014 15:42 15,3 C 14,4 C 100 % 1004,6 hPa 0,4 l/m 0 min 2 min 0,0 UV-I 53 W/m 10,5 km/h (2 Bft)
09.07.2014 15:44 15,3 C 14,4 C 100 % 1004,5 hPa 0,2 l/m 0 min 2 min 0,0 UV-I 47 W/m 8,4 km/h (2 Bft)
09.07.2014 15:46 15,3 C 14,4 C 100 % 1004,6 hPa 0,0 l/m 0 min 2 min 0,0 UV-I 49 W/m 8,4 km/h (2 Bft)
09.07.2014 15:48 15,3 C 14,4 C 100 % 1004,6 hPa 0,2 l/m 0 min 2 min 0,0 UV-I 56 W/m 10,5 km/h (2 Bft)
09.07.2014 15:50 15,3 C 14,4 C 100 % 1004,6 hPa 0,2 l/m 0 min 2 min 0,0 UV-I 58 W/m 2,1 km/h (1 Bft)
09.07.2014 15:52 15,4 C 14,4 C 100 % 1004,5 hPa 0,0 l/m 0 min 2 min 0,0 UV-I 58 W/m 6,3 km/h (2 Bft)
09.07.2014 15:54 15,4 C 14,4 C 100 % 1004,5 hPa 0,0 l/m 0 min 2 min 0,0 UV-I 54 W/m 6,3 km/h (2 Bft)
09.07.2014 15:56 15,4 C 14,4 C 100 % 1004,6 hPa 0,2 l/m 0 min 2 min 0,0 UV-I 53 W/m 12,6 km/h (3 Bft)
09.07.2014 15:58 15,4 C 14,4 C 100 % 1004,5 hPa 0,0 l/m 0 min 2 min 0,0 UV-I 49 W/m 8,4 km/h (2 Bft)
09.07.2014 16:00 15,5 C 14,4 C 100 % 1004,5 hPa 0,0 l/m 0 min 2 min 0,0 UV-I 54 W/m 6,3 km/h (2 Bft)
09.07.2014 16:02 15,5 C 14,4 C 100 % 1004,5 hPa 0,2 l/m 0 min 2 min 0,0 UV-I 51 W/m 6,3 km/h (2 Bft)
09.07.2014 16:04 15,5 C 14,4 C 100 % 1004,6 hPa 0,0 l/m 0 min 2 min 0,0 UV-I 46 W/m 6,3 km/h (2 Bft)
09.07.2014 16:06 15,6 C 14,4 C 100 % 1004,5 hPa 0,0 l/m 0 min 2 min 0,0 UV-I 49 W/m 0,0 km/h (0 Bft)
09.07.2014 16:08 15,6 C 14,4 C 100 % 1004,5 hPa 0,0 l/m 0 min 2 min 0,0 UV-I 53 W/m 10,5 km/h (2 Bft)
09.07.2014 16:10 15,6 C 14,4 C 100 % 1004,5 hPa 0,0 l/m 0 min 2 min 0,0 UV-I 44 W/m 12,6 km/h (3 Bft)
09.07.2014 16:12 15,6 C 14,4 C 100 % 1004,5 hPa 0,0 l/m 0 min 2 min 0,0 UV-I 42 W/m 10,5 km/h (2 Bft)
09.07.2014 16:14 15,6 C 14,4 C 100 % 1004,5 hPa 0,0 l/m 0 min 2 min 0,0 UV-I 42 W/m 6,3 km/h (2 Bft)
09.07.2014 16:16 15,6 C 14,4 C 100 % 1004,5 hPa 0,0 l/m 0 min 2 min 0,0 UV-I 44 W/m 0,0 km/h (0 Bft)
09.07.2014 16:18 15,6 C 14,4 C 100 % 1004,5 hPa 0,0 l/m 0 min 2 min 0,0 UV-I 40 W/m 10,5 km/h (2 Bft)
09.07.2014 16:20 15,6 C 14,4 C 100 % 1004,5 hPa 0,0 l/m 0 min 2 min 0,0 UV-I 40 W/m 8,4 km/h (2 Bft)
09.07.2014 16:22 15,6 C 14,4 C 100 % 1004,5 hPa 0,0 l/m 0 min 2 min 0,0 UV-I 40 W/m 6,3 km/h (2 Bft)
09.07.2014 16:24 15,7 C 14,4 C 100 % 1004,5 hPa 0,0 l/m 0 min 2 min 0,0 UV-I 40 W/m 0,0 km/h (0 Bft)
09.07.2014 16:26 15,7 C 14,4 C 100 % 1004,5 hPa 0,0 l/m 0 min 2 min 0,0 UV-I 40 W/m 0,0 km/h (0 Bft)
09.07.2014 16:28 15,7 C 14,4 C 100 % 1004,5 hPa 0,2 l/m 0 min 2 min 0,0 UV-I 42 W/m 6,3 km/h (2 Bft)
09.07.2014 16:30 15,7 C 14,4 C 100 % 1004,5 hPa 0,0 l/m 0 min 2 min 0,0 UV-I 42 W/m 2,1 km/h (1 Bft)
09.07.2014 16:32 15,8 C 14,4 C 100 % 1004,5 hPa 0,0 l/m 0 min 2 min 0,0 UV-I 42 W/m 2,1 km/h (1 Bft)
09.07.2014 16:34 15,8 C 14,4 C 100 % 1004,5 hPa 0,0 l/m 0 min 2 min 0,0 UV-I 42 W/m 10,5 km/h (2 Bft)
09.07.2014 16:36 15,8 C 14,4 C 100 % 1004,5 hPa 0,2 l/m 0 min 2 min 0,0 UV-I 35 W/m 8,4 km/h (2 Bft)
09.07.2014 16:38 15,8 C 14,4 C 100 % 1004,5 hPa 0,0 l/m 0 min 2 min 0,0 UV-I 32 W/m 6,3 km/h (2 Bft)
09.07.2014 16:40 15,9 C 15,0 C 100 % 1004,5 hPa 0,0 l/m 0 min 2 min 0,0 UV-I 35 W/m 10,5 km/h (2 Bft)
09.07.2014 16:42 15,8 C 15,0 C 100 % 1004,4 hPa 0,0 l/m 0 min 0 min 0,0 UV-I 35 W/m 8,4 km/h (2 Bft)
09.07.2014 16:44 15,9 C 15,0 C 100 % 1004,4 hPa 0,0 l/m 0 min 0 min 0,0 UV-I 39 W/m 8,4 km/h (2 Bft)
09.07.2014 16:46 15,9 C 15,0 C 100 % 1004,4 hPa 0,0 l/m 0 min 0 min 0,0 UV-I 40 W/m 8,4 km/h (2 Bft)
09.07.2014 16:48 15,9 C 15,0 C 100 % 1004,4 hPa 0,0 l/m 0 min 0 min 0,0 UV-I 33 W/m 8,4 km/h (2 Bft)
09.07.2014 16:50 15,9 C 15,0 C 100 % 1004,4 hPa 0,0 l/m 0 min 0 min 0,0 UV-I 28 W/m 6,3 km/h (2 Bft)
09.07.2014 16:52 15,9 C 15,0 C 100 % 1004,4 hPa 0,0 l/m 0 min 2 min 0,0 UV-I 26 W/m 4,2 km/h (1 Bft)
09.07.2014 16:54 15,9 C 15,0 C 100 % 1004,3 hPa 0,0 l/m 0 min 0 min 0,0 UV-I 32 W/m 12,6 km/h (3 Bft)
09.07.2014 16:56 15,9 C 15,0 C 100 % 1004,3 hPa 0,0 l/m 0 min 0 min 0,0 UV-I 35 W/m 10,5 km/h (2 Bft)
09.07.2014 16:58 15,9 C 15,0 C 100 % 1004,2 hPa 0,0 l/m 0 min 0 min 0,0 UV-I 40 W/m 0,0 km/h (0 Bft)
09.07.2014 17:00 15,9 C 15,0 C 100 % 1004,2 hPa 0,2 l/m 0 min 0 min 0,0 UV-I 33 W/m 10,5 km/h (2 Bft)
09.07.2014 17:02 16,0 C 15,0 C 100 % 1004,2 hPa 0,0 l/m 0 min 0 min 0,0 UV-I 35 W/m 14,6 km/h (3 Bft)
09.07.2014 17:04 16,0 C 15,0 C 100 % 1004,3 hPa 0,0 l/m 0 min 0 min 0,0 UV-I 40 W/m 8,4 km/h (2 Bft)
09.07.2014 17:06 16,1 C 15,0 C 100 % 1004,2 hPa 0,0 l/m 0 min 0 min 0,0 UV-I 46 W/m 12,6 km/h (3 Bft)
09.07.2014 17:08 16,1 C 15,0 C 100 % 1004,2 hPa 0,0 l/m 0 min 0 min 0,0 UV-I 40 W/m 10,5 km/h (2 Bft)
09.07.2014 17:10 16,1 C 15,0 C 100 % 1004,3 hPa 0,0 l/m 0 min 0 min 0,0 UV-I 33 W/m 12,6 km/h (3 Bft)
09.07.2014 17:12 16,1 C 15,0 C 100 % 1004,3 hPa 0,0 l/m 0 min 0 min 0,0 UV-I 28 W/m 12,6 km/h (3 Bft)
09.07.2014 17:14 16,2 C 15,0 C 100 % 1004,2 hPa 0,0 l/m 0 min 0 min 0,0 UV-I 26 W/m 12,6 km/h (3 Bft)
09.07.2014 17:16 16,2 C 15,0 C 100 % 1004,2 hPa 0,0 l/m 0 min 0 min 0,0 UV-I 39 W/m 14,6 km/h (3 Bft)
09.07.2014 17:18 16,2 C 15,0 C 100 % 1004,2 hPa 0,0 l/m 0 min 0 min 0,0 UV-I 40 W/m 14,6 km/h (3 Bft)
09.07.2014 17:20 16,2 C 15,0 C 100 % 1004,1 hPa 0,0 l/m 0 min 0 min 0,0 UV-I 40 W/m 12,6 km/h (3 Bft)
09.07.2014 17:22 16,3 C 15,0 C 100 % 1004,2 hPa 0,0 l/m 0 min 0 min 0,0 UV-I 39 W/m 8,4 km/h (2 Bft)
09.07.2014 17:24 16,3 C 15,0 C 100 % 1004,2 hPa 0,0 l/m 0 min 0 min 0,0 UV-I 37 W/m 12,6 km/h (3 Bft)
09.07.2014 17:26 16,3 C 15,0 C 100 % 1004,2 hPa 0,0 l/m 0 min 0 min 0,0 UV-I 39 W/m 10,5 km/h (2 Bft)
09.07.2014 17:28 16,4 C 15,6 C 100 % 1004,1 hPa 0,0 l/m 0 min 0 min 0,0 UV-I 40 W/m 12,6 km/h (3 Bft)
09.07.2014 17:30 16,4 C 15,6 C 100 % 1004,1 hPa 0,0 l/m 0 min 0 min 0,0 UV-I 33 W/m 14,6 km/h (3 Bft)
09.07.2014 17:32 16,4 C 15,6 C 100 % 1004,1 hPa 0,0 l/m 0 min 0 min 0,0 UV-I 26 W/m 10,5 km/h (2 Bft)
09.07.2014 17:34 16,5 C 15,6 C 100 % 1004,1 hPa 0,0 l/m 0 min 0 min 0,0 UV-I 30 W/m 12,6 km/h (3 Bft)
09.07.2014 17:36 16,5 C 15,6 C 100 % 1004,1 hPa 0,0 l/m 0 min 0 min 0,0 UV-I 39 W/m 14,6 km/h (3 Bft)
09.07.2014 17:38 16,6 C 15,6 C 100 % 1004,2 hPa 0,0 l/m 0 min 0 min 0,0 UV-I 37 W/m 14,6 km/h (3 Bft)
09.07.2014 17:40 16,6 C 15,6 C 100 % 1004,2 hPa 0,0 l/m 0 min 0 min 0,0 UV-I 37 W/m 20,9 km/h (4 Bft)
09.07.2014 17:42 16,7 C 15,6 C 100 % 1004,3 hPa 0,0 l/m 0 min 0 min 0,0 UV-I 39 W/m 14,6 km/h (3 Bft)
09.07.2014 17:44 16,7 C 15,6 C 100 % 1004,2 hPa 0,0 l/m 0 min 0 min 0,0 UV-I 49 W/m 20,9 km/h (4 Bft)
09.07.2014 17:46 16,7 C 15,6 C 100 % 1004,2 hPa 0,0 l/m 0 min 0 min 0,0 UV-I 67 W/m 20,9 km/h (4 Bft)
09.07.2014 17:48 16,8 C 15,6 C 100 % 1004,2 hPa 0,0 l/m 0 min 0 min 0,0 UV-I 58 W/m 18,8 km/h (3 Bft)
09.07.2014 17:50 16,8 C 15,6 C 100 % 1004,2 hPa 0,0 l/m 0 min 0 min 0,0 UV-I 49 W/m 27,2 km/h (4 Bft)
09.07.2014 17:52 16,8 C 15,6 C 100 % 1004,3 hPa 0,0 l/m 0 min 0 min 0,0 UV-I 40 W/m 18,8 km/h (3 Bft)
09.07.2014 17:54 16,9 C 15,6 C 100 % 1004,3 hPa 0,0 l/m 0 min 0 min 0,0 UV-I 47 W/m 16,7 km/h (3 Bft)
09.07.2014 17:56 16,9 C 16,1 C 100 % 1004,3 hPa 0,0 l/m 0 min 0 min 0,0 UV-I 56 W/m 18,8 km/h (3 Bft)
09.07.2014 17:58 16,9 C 16,1 C 100 % 1004,3 hPa 0,0 l/m 0 min 0 min 0,0 UV-I 56 W/m 23,0 km/h (4 Bft)
09.07.2014 18:00 16,9 C 16,1 C 100 % 1004,2 hPa 0,0 l/m 0 min 0 min 0,0 UV-I 60 W/m 16,7 km/h (3 Bft)
09.07.2014 18:02 17,0 C 16,1 C 100 % 1004,3 hPa 0,0 l/m 0 min 0 min 0,0 UV-I 49 W/m 18,8 km/h (3 Bft)
09.07.2014 18:05 17,1 C 16,1 C 100 % 1004,2 hPa 0,0 l/m 0 min 0 min 0,0 UV-I 40 W/m 25,1 km/h (4 Bft)
09.07.2014 18:06 17,1 C 16,1 C 100 % 1004,2 hPa 0,0 l/m 0 min 0 min 0,0 UV-I 40 W/m 25,1 km/h (4 Bft)
09.07.2014 18:08 17,1 C 16,1 C 100 % 1004,3 hPa 0,0 l/m 0 min 0 min 0,0 UV-I 39 W/m 18,8 km/h (3 Bft)
09.07.2014 18:10 17,1 C 16,1 C 100 % 1004,3 hPa 0,0 l/m 0 min 0 min 0,0 UV-I 30 W/m 20,9 km/h (4 Bft)
09.07.2014 18:12 17,1 C 16,1 C 100 % 1004,4 hPa 0,0 l/m 0 min 0 min 0,0 UV-I 23 W/m 25,1 km/h (4 Bft)
09.07.2014 18:14 17,2 C 16,1 C 100 % 1004,4 hPa 0,0 l/m 0 min 0 min 0,0 UV-I 21 W/m 23,0 km/h (4 Bft)
09.07.2014 18:16 17,2 C 16,1 C 100 % 1004,4 hPa 0,0 l/m 0 min 0 min 0,0 UV-I 19 W/m 20,9 km/h (4 Bft)
09.07.2014 18:18 17,2 C 16,1 C 100 % 1004,4 hPa 0,0 l/m 0 min 0 min 0,0 UV-I 19 W/m 16,7 km/h (3 Bft)
09.07.2014 18:20 17,2 C 16,1 C 100 % 1004,4 hPa 0,0 l/m 0 min 0 min 0,0 UV-I 21 W/m 18,8 km/h (3 Bft)
09.07.2014 18:22 17,2 C 16,1 C 100 % 1004,3 hPa 0,0 l/m 0 min 0 min 0,0 UV-I 32 W/m 16,7 km/h (3 Bft)
09.07.2014 18:24 17,2 C 16,1 C 100 % 1004,4 hPa 0,0 l/m 0 min 0 min 0,0 UV-I 32 W/m 23,0 km/h (4 Bft)
09.07.2014 18:26 17,2 C 16,1 C 100 % 1004,3 hPa 0,0 l/m 0 min 0 min 0,0 UV-I 30 W/m 20,9 km/h (4 Bft)
09.07.2014 18:28 17,2 C 16,1 C 100 % 1004,3 hPa 0,0 l/m 0 min 0 min 0,0 UV-I 28 W/m 23,0 km/h (4 Bft)
09.07.2014 18:30 17,2 C 16,1 C 100 % 1004,4 hPa 0,0 l/m 0 min 0 min 0,0 UV-I 35 W/m 20,9 km/h (4 Bft)
09.07.2014 18:32 17,2 C 16,1 C 100 % 1004,3 hPa 0,0 l/m 0 min 0 min 0,0 UV-I 28 W/m 25,1 km/h (4 Bft)
09.07.2014 18:34 17,2 C 16,1 C 100 % 1004,4 hPa 0,0 l/m 0 min 0 min 0,0 UV-I 26 W/m 27,2 km/h (4 Bft)
09.07.2014 18:36 17,3 C 16,1 C 100 % 1004,4 hPa 0,0 l/m 0 min 0 min 0,0 UV-I 28 W/m 14,6 km/h (3 Bft)
09.07.2014 18:38 17,3 C 16,1 C 100 % 1004,4 hPa 0,0 l/m 0 min 0 min 0,0 UV-I 28 W/m 16,7 km/h (3 Bft)
09.07.2014 18:40 17,3 C 16,1 C 100 % 1004,4 hPa 0,0 l/m 0 min 0 min 0,0 UV-I 33 W/m 25,1 km/h (4 Bft)
09.07.2014 18:42 17,3 C 16,1 C 100 % 1004,4 hPa 0,0 l/m 0 min 2 min 0,0 UV-I 28 W/m 20,9 km/h (4 Bft)
09.07.2014 18:44 17,3 C 16,1 C 100 % 1004,4 hPa 0,0 l/m 0 min 2 min 0,0 UV-I 26 W/m 23,0 km/h (4 Bft)
09.07.2014 18:46 17,3 C 16,1 C 100 % 1004,4 hPa 0,0 l/m 0 min 2 min 0,0 UV-I 35 W/m 20,9 km/h (4 Bft)
09.07.2014 18:48 17,3 C 16,1 C 100 % 1004,4 hPa 0,0 l/m 0 min 2 min 0,0 UV-I 40 W/m 23,0 km/h (4 Bft)
09.07.2014 18:50 17,3 C 16,1 C 100 % 1004,3 hPa 0,2 l/m 0 min 2 min 0,0 UV-I 42 W/m 20,9 km/h (4 Bft)
09.07.2014 18:52 17,3 C 16,1 C 100 % 1004,3 hPa 0,0 l/m 0 min 2 min 0,0 UV-I 39 W/m 25,1 km/h (4 Bft)
09.07.2014 18:54 17,3 C 16,1 C 100 % 1004,4 hPa 0,0 l/m 0 min 2 min 0,0 UV-I 32 W/m 20,9 km/h (4 Bft)
09.07.2014 18:56 17,3 C 16,1 C 100 % 1004,3 hPa 0,0 l/m 0 min 2 min 0,0 UV-I 26 W/m 27,2 km/h (4 Bft)
09.07.2014 18:58 17,3 C 16,1 C 100 % 1004,4 hPa 0,2 l/m 0 min 2 min 0,0 UV-I 23 W/m 23,0 km/h (4 Bft)
09.07.2014 19:00 17,3 C 16,1 C 100 % 1004,4 hPa 0,0 l/m 0 min 2 min 0,0 UV-I 21 W/m 16,7 km/h (3 Bft)
09.07.2014 19:02 17,3 C 16,1 C 100 % 1004,4 hPa 0,2 l/m 0 min 2 min 0,0 UV-I 18 W/m 14,6 km/h (3 Bft)
09.07.2014 19:04 17,3 C 16,1 C 100 % 1004,3 hPa 0,0 l/m 0 min 2 min 0,0 UV-I 14 W/m 18,8 km/h (3 Bft)
09.07.2014 19:06 17,3 C 16,1 C 100 % 1004,3 hPa 0,0 l/m 0 min 2 min 0,0 UV-I 11 W/m 18,8 km/h (3 Bft)
09.07.2014 19:08 17,3 C 16,1 C 100 % 1004,4 hPa 0,0 l/m 0 min 0 min 0,0 UV-I 14 W/m 10,5 km/h (2 Bft)
09.07.2014 19:10 17,3 C 16,1 C 100 % 1004,3 hPa 0,0 l/m 0 min 0 min 0,0 UV-I 14 W/m 18,8 km/h (3 Bft)
09.07.2014 19:12 17,3 C 16,1 C 100 % 1004,4 hPa 0,0 l/m 0 min 2 min 0,0 UV-I 16 W/m 14,6 km/h (3 Bft)
09.07.2014 19:14 17,3 C 16,1 C 100 % 1004,3 hPa 0,0 l/m 0 min 2 min 0,0 UV-I 16 W/m 20,9 km/h (4 Bft)
09.07.2014 19:16 17,3 C 16,1 C 100 % 1004,4 hPa 0,0 l/m 0 min 2 min 0,0 UV-I 18 W/m 23,0 km/h (4 Bft)
09.07.2014 19:18 17,3 C 16,1 C 100 % 1004,4 hPa 0,0 l/m 0 min 2 min 0,0 UV-I 23 W/m 16,7 km/h (3 Bft)
09.07.2014 19:20 17,3 C 16,1 C 100 % 1004,3 hPa 0,0 l/m 0 min 0 min 0,0 UV-I 25 W/m 20,9 km/h (4 Bft)
09.07.2014 19:22 17,3 C 16,1 C 100 % 1004,4 hPa 0,2 l/m 0 min 0 min 0,0 UV-I 18 W/m 18,8 km/h (3 Bft)
09.07.2014 19:24 17,3 C 16,1 C 100 % 1004,4 hPa 0,0 l/m 0 min 0 min 0,0 UV-I 12 W/m 18,8 km/h (3 Bft)
09.07.2014 19:26 17,2 C 16,1 C 100 % 1004,4 hPa 0,0 l/m 0 min 0 min 0,0 UV-I 14 W/m 20,9 km/h (4 Bft)
09.07.2014 19:28 17,2 C 16,1 C 100 % 1004,4 hPa 0,0 l/m 0 min 0 min 0,0 UV-I 14 W/m 18,8 km/h (3 Bft)
09.07.2014 19:30 17,3 C 16,1 C 100 % 1004,5 hPa 0,0 l/m 0 min 0 min 0,0 UV-I 14 W/m 29,3 km/h (5 Bft)
09.07.2014 19:32 17,2 C 16,1 C 100 % 1004,6 hPa 0,0 l/m 0 min 2 min 0,0 UV-I 14 W/m 23,0 km/h (4 Bft)
09.07.2014 19:34 17,3 C 16,1 C 100 % 1004,6 hPa 0,0 l/m 0 min 2 min 0,0 UV-I 12 W/m 31,4 km/h (5 Bft)
09.07.2014 19:36 17,3 C 16,1 C 100 % 1004,7 hPa 0,0 l/m 0 min 2 min 0,0 UV-I 11 W/m 23,0 km/h (4 Bft)
09.07.2014 19:38 17,2 C 16,1 C 100 % 1004,6 hPa 0,0 l/m 0 min 2 min 0,0 UV-I 11 W/m 23,0 km/h (4 Bft)
09.07.2014 19:40 17,2 C 16,1 C 100 % 1004,7 hPa 0,0 l/m 0 min 2 min 0,0 UV-I 11 W/m 20,9 km/h (4 Bft)
09.07.2014 19:42 17,2 C 16,1 C 100 % 1004,7 hPa 0,0 l/m 0 min 2 min 0,0 UV-I 9 W/m 14,6 km/h (3 Bft)
09.07.2014 19:44 17,2 C 16,1 C 100 % 1004,7 hPa 0,0 l/m 0 min 2 min 0,0 UV-I 9 W/m 25,1 km/h (4 Bft)
09.07.2014 19:46 17,2 C 16,1 C 100 % 1004,7 hPa 0,0 l/m 0 min 2 min 0,0 UV-I 9 W/m 23,0 km/h (4 Bft)
09.07.2014 19:48 17,2 C 16,1 C 100 % 1004,6 hPa 0,0 l/m 0 min 2 min 0,0 UV-I 9 W/m 16,7 km/h (3 Bft)
09.07.2014 19:50 17,3 C 16,1 C 100 % 1004,7 hPa 0,2 l/m 0 min 2 min 0,0 UV-I 9 W/m 29,3 km/h (5 Bft)
09.07.2014 19:52 17,2 C 16,1 C 100 % 1004,7 hPa 0,0 l/m 0 min 2 min 0,0 UV-I 7 W/m 20,9 km/h (4 Bft)
09.07.2014 19:54 17,3 C 16,1 C 100 % 1004,7 hPa 0,0 l/m 0 min 2 min 0,0 UV-I 7 W/m 23,0 km/h (4 Bft)
09.07.2014 19:56 17,3 C 16,1 C 100 % 1004,8 hPa 0,0 l/m 0 min 2 min 0,0 UV-I 7 W/m 20,9 km/h (4 Bft)
09.07.2014 19:58 17,3 C 16,1 C 100 % 1004,9 hPa 0,2 l/m 0 min 2 min 0,0 UV-I 7 W/m 18,8 km/h (3 Bft)
09.07.2014 20:00 17,3 C 16,1 C 100 % 1004,8 hPa 0,0 l/m 0 min 2 min 0,0 UV-I 7 W/m 16,7 km/h (3 Bft)
09.07.2014 20:02 17,3 C 16,1 C 100 % 1004,8 hPa 0,2 l/m 0 min 2 min 0,0 UV-I 9 W/m 16,7 km/h (3 Bft)
09.07.2014 20:04 17,3 C 16,1 C 100 % 1004,8 hPa 0,2 l/m 0 min 2 min 0,0 UV-I 7 W/m 25,1 km/h (4 Bft)
09.07.2014 20:06 17,3 C 16,1 C 100 % 1004,7 hPa 0,0 l/m 0 min 2 min 0,0 UV-I 9 W/m 18,8 km/h (3 Bft)
09.07.2014 20:08 17,3 C 16,1 C 100 % 1004,8 hPa 0,2 l/m 0 min 2 min 0,0 UV-I 7 W/m 18,8 km/h (3 Bft)
09.07.2014 20:10 17,3 C 16,1 C 100 % 1004,9 hPa 0,0 l/m 0 min 0 min 0,0 UV-I 7 W/m 18,8 km/h (3 Bft)
09.07.2014 20:12 17,3 C 16,1 C 100 % 1004,8 hPa 0,0 l/m 0 min 0 min 0,0 UV-I 7 W/m 20,9 km/h (4 Bft)
09.07.2014 20:14 17,3 C 16,1 C 100 % 1004,7 hPa 0,0 l/m 0 min 0 min 0,0 UV-I 7 W/m 18,8 km/h (3 Bft)
09.07.2014 20:16 17,3 C 16,1 C 100 % 1004,7 hPa 0,0 l/m 0 min 0 min 0,0 UV-I 7 W/m 20,9 km/h (4 Bft)
09.07.2014 20:18 17,3 C 16,1 C 100 % 1004,7 hPa 0,0 l/m 0 min 0 min 0,0 UV-I 7 W/m 14,6 km/h (3 Bft)
09.07.2014 20:20 17,3 C 16,1 C 100 % 1004,7 hPa 0,0 l/m 0 min 0 min 0,0 UV-I 5 W/m 18,8 km/h (3 Bft)
09.07.2014 20:22 17,3 C 16,1 C 100 % 1004,7 hPa 0,0 l/m 0 min 0 min 0,0 UV-I 9 W/m 20,9 km/h (4 Bft)
09.07.2014 20:24 17,3 C 16,1 C 100 % 1004,7 hPa 0,0 l/m 0 min 0 min 0,0 UV-I 9 W/m 20,9 km/h (4 Bft)
09.07.2014 20:26 17,3 C 16,1 C 100 % 1004,7 hPa 0,0 l/m 0 min 0 min 0,0 UV-I 9 W/m 18,8 km/h (3 Bft)
09.07.2014 20:28 17,3 C 16,1 C 100 % 1004,7 hPa 0,0 l/m 0 min 0 min 0,0 UV-I 9 W/m 18,8 km/h (3 Bft)
09.07.2014 20:30 17,3 C 16,1 C 100 % 1004,7 hPa 0,0 l/m 0 min 0 min 0,0 UV-I 9 W/m 25,1 km/h (4 Bft)
09.07.2014 20:32 17,3 C 16,1 C 100 % 1004,8 hPa 0,0 l/m 0 min 0 min 0,0 UV-I 9 W/m 14,6 km/h (3 Bft)
09.07.2014 20:34 17,3 C 16,1 C 100 % 1004,8 hPa 0,0 l/m 0 min 0 min 0,0 UV-I 9 W/m 10,5 km/h (2 Bft)
09.07.2014 20:36 17,3 C 16,1 C 100 % 1004,7 hPa 0,0 l/m 0 min 0 min 0,0 UV-I 11 W/m 14,6 km/h (3 Bft)
09.07.2014 20:38 17,3 C 16,1 C 100 % 1004,7 hPa 0,0 l/m 0 min 0 min 0,0 UV-I 11 W/m 16,7 km/h (3 Bft)
09.07.2014 20:40 17,3 C 16,1 C 100 % 1004,8 hPa 0,0 l/m 0 min 0 min 0,0 UV-I 7 W/m 16,7 km/h (3 Bft)
09.07.2014 20:42 17,3 C 16,1 C 100 % 1004,9 hPa 0,0 l/m 0 min 0 min 0,0 UV-I 7 W/m 18,8 km/h (3 Bft)
09.07.2014 20:44 17,3 C 16,1 C 100 % 1004,8 hPa 0,0 l/m 0 min 0 min 0,0 UV-I 5 W/m 14,6 km/h (3 Bft)
09.07.2014 20:46 17,3 C 16,1 C 100 % 1004,9 hPa 0,0 l/m 0 min 0 min 0,0 UV-I 5 W/m 18,8 km/h (3 Bft)
09.07.2014 20:48 17,4 C 16,1 C 100 % 1005,0 hPa 0,0 l/m 0 min 0 min 0,0 UV-I 0 W/m 20,9 km/h (4 Bft)
09.07.2014 20:50 17,3 C 16,1 C 100 % 1005,4 hPa 0,0 l/m 0 min 0 min 0,0 UV-I 0 W/m 18,8 km/h (3 Bft)
09.07.2014 20:52 17,4 C 16,1 C 100 % 1005,7 hPa 1,2 l/m 0 min 2 min 0,0 UV-I 0 W/m 18,8 km/h (3 Bft)
09.07.2014 20:54 17,4 C 16,1 C 100 % 1005,5 hPa 0,8 l/m 0 min 2 min 0,0 UV-I 0 W/m 6,3 km/h (2 Bft)
09.07.2014 20:56 17,4 C 16,1 C 100 % 1005,4 hPa 0,4 l/m 0 min 2 min 0,0 UV-I 0 W/m 6,3 km/h (2 Bft)
09.07.2014 20:58 17,4 C 16,1 C 100 % 1005,4 hPa 0,4 l/m 0 min 2 min 0,0 UV-I 0 W/m 6,3 km/h (2 Bft)
09.07.2014 21:00 17,4 C 16,1 C 100 % 1005,5 hPa 0,0 l/m 0 min 2 min 0,0 UV-I 0 W/m 8,4 km/h (2 Bft)
09.07.2014 21:02 17,4 C 16,1 C 100 % 1005,4 hPa 0,0 l/m 0 min 2 min 0,0 UV-I 0 W/m 6,3 km/h (2 Bft)
09.07.2014 21:04 17,4 C 16,1 C 100 % 1005,4 hPa 0,0 l/m 0 min 2 min 0,0 UV-I 0 W/m 8,4 km/h (2 Bft)
09.07.2014 21:06 17,4 C 16,1 C 100 % 1005,3 hPa 0,0 l/m 0 min 0 min 0,0 UV-I 0 W/m 10,5 km/h (2 Bft)
09.07.2014 21:08 17,4 C 16,1 C 100 % 1005,3 hPa 0,0 l/m 0 min 2 min 0,0 UV-I 0 W/m 8,4 km/h (2 Bft)
09.07.2014 21:10 17,4 C 16,1 C 100 % 1005,4 hPa 0,2 l/m 0 min 2 min 0,0 UV-I 0 W/m 8,4 km/h (2 Bft)
09.07.2014 21:12 17,4 C 16,1 C 100 % 1005,4 hPa 0,0 l/m 0 min 2 min 0,0 UV-I 0 W/m 2,1 km/h (1 Bft)
09.07.2014 21:14 17,4 C 16,1 C 100 % 1005,4 hPa 0,2 l/m 0 min 2 min 0,0 UV-I 0 W/m 0,0 km/h (0 Bft)
09.07.2014 21:16 17,4 C 16,1 C 100 % 1005,4 hPa 0,0 l/m 0 min 2 min 0,0 UV-I 0 W/m 8,4 km/h (2 Bft)
09.07.2014 21:18 17,4 C 16,1 C 100 % 1005,4 hPa 0,2 l/m 0 min 2 min 0,0 UV-I 0 W/m 12,6 km/h (3 Bft)
09.07.2014 21:20 17,4 C 16,1 C 100 % 1005,4 hPa 0,0 l/m 0 min 2 min 0,0 UV-I 0 W/m 12,6 km/h (3 Bft)
09.07.2014 21:22 17,4 C 16,1 C 100 % 1005,3 hPa 0,0 l/m 0 min 2 min 0,0 UV-I 0 W/m 10,5 km/h (2 Bft)
09.07.2014 21:24 17,4 C 16,1 C 100 % 1005,4 hPa 0,4 l/m 0 min 2 min 0,0 UV-I 0 W/m 14,6 km/h (3 Bft)
09.07.2014 21:26 17,4 C 16,1 C 100 % 1005,3 hPa 0,0 l/m 0 min 2 min 0,0 UV-I 0 W/m 16,7 km/h (3 Bft)
09.07.2014 21:28 17,4 C 16,1 C 100 % 1005,3 hPa 0,0 l/m 0 min 2 min 0,0 UV-I 0 W/m 18,8 km/h (3 Bft)
09.07.2014 21:30 17,4 C 16,1 C 100 % 1005,3 hPa 0,0 l/m 0 min 0 min 0,0 UV-I 0 W/m 16,7 km/h (3 Bft)
09.07.2014 21:32 17,5 C 16,1 C 100 % 1005,2 hPa 0,0 l/m 0 min 0 min 0,0 UV-I 0 W/m 16,7 km/h (3 Bft)
09.07.2014 21:34 17,5 C 16,1 C 100 % 1005,2 hPa 0,0 l/m 0 min 0 min 0,0 UV-I 0 W/m 18,8 km/h (3 Bft)
09.07.2014 21:36 17,5 C 16,1 C 100 % 1005,3 hPa 0,0 l/m 0 min 0 min 0,0 UV-I 0 W/m 16,7 km/h (3 Bft)
09.07.2014 21:38 17,5 C 16,1 C 100 % 1005,3 hPa 0,0 l/m 0 min 0 min 0,0 UV-I 0 W/m 16,7 km/h (3 Bft)
09.07.2014 21:40 17,5 C 16,1 C 100 % 1005,4 hPa 0,0 l/m 0 min 0 min 0,0 UV-I 0 W/m 16,7 km/h (3 Bft)
09.07.2014 21:42 17,5 C 16,1 C 100 % 1005,3 hPa 0,0 l/m 0 min 0 min 0,0 UV-I 0 W/m 12,6 km/h (3 Bft)
09.07.2014 21:44 17,6 C 16,1 C 100 % 1005,4 hPa 0,0 l/m 0 min 0 min 0,0 UV-I 0 W/m 20,9 km/h (4 Bft)
09.07.2014 21:46 17,6 C 16,1 C 100 % 1005,5 hPa 0,0 l/m 0 min 0 min 0,0 UV-I 0 W/m 20,9 km/h (4 Bft)
09.07.2014 21:48 17,6 C 16,1 C 100 % 1005,4 hPa 0,0 l/m 0 min 2 min 0,0 UV-I 0 W/m 18,8 km/h (3 Bft)
09.07.2014 21:50 17,6 C 16,1 C 100 % 1005,4 hPa 0,0 l/m 0 min 0 min 0,0 UV-I 0 W/m 18,8 km/h (3 Bft)
09.07.2014 21:52 17,6 C 16,1 C 100 % 1005,4 hPa 0,0 l/m 0 min 0 min 0,0 UV-I 0 W/m 18,8 km/h (3 Bft)
09.07.2014 21:54 17,6 C 16,1 C 100 % 1005,4 hPa 0,0 l/m 0 min 0 min 0,0 UV-I 0 W/m 20,9 km/h (4 Bft)
09.07.2014 21:56 17,6 C 16,1 C 100 % 1005,4 hPa 0,0 l/m 0 min 0 min 0,0 UV-I 0 W/m 16,7 km/h (3 Bft)
09.07.2014 21:58 17,6 C 16,1 C 100 % 1005,3 hPa 0,0 l/m 0 min 0 min 0,0 UV-I 0 W/m 10,5 km/h (2 Bft)
09.07.2014 22:00 17,6 C 16,1 C 100 % 1005,3 hPa 0,0 l/m 0 min 0 min 0,0 UV-I 0 W/m 16,7 km/h (3 Bft)
09.07.2014 22:02 17,6 C 16,1 C 100 % 1005,4 hPa 0,0 l/m 0 min 0 min 0,0 UV-I 0 W/m 18,8 km/h (3 Bft)
09.07.2014 22:04 17,6 C 16,1 C 100 % 1005,3 hPa 0,0 l/m 0 min 0 min 0,0 UV-I 0 W/m 10,5 km/h (2 Bft)
09.07.2014 22:06 17,6 C 16,1 C 100 % 1005,3 hPa 0,0 l/m 0 min 0 min 0,0 UV-I 0 W/m 12,6 km/h (3 Bft)
09.07.2014 22:08 17,6 C 16,1 C 100 % 1005,4 hPa 0,0 l/m 0 min 0 min 0,0 UV-I 0 W/m 10,5 km/h (2 Bft)
09.07.2014 22:10 17,6 C 16,1 C 100 % 1005,4 hPa 0,0 l/m 0 min 2 min 0,0 UV-I 0 W/m 14,6 km/h (3 Bft)
09.07.2014 22:12 17,6 C 16,1 C 100 % 1005,4 hPa 0,0 l/m 0 min 0 min 0,0 UV-I 0 W/m 14,6 km/h (3 Bft)
09.07.2014 22:14 17,6 C 16,1 C 100 % 1005,4 hPa 0,0 l/m 0 min 0 min 0,0 UV-I 0 W/m 16,7 km/h (3 Bft)
09.07.2014 22:16 17,6 C 16,1 C 100 % 1005,4 hPa 0,0 l/m 0 min 0 min 0,0 UV-I 0 W/m 16,7 km/h (3 Bft)
09.07.2014 22:18 17,6 C 16,1 C 100 % 1005,4 hPa 0,0 l/m 0 min 0 min 0,0 UV-I 0 W/m 12,6 km/h (3 Bft)
09.07.2014 22:20 17,6 C 16,1 C 100 % 1005,4 hPa 0,0 l/m 0 min 0 min 0,0 UV-I 0 W/m 10,5 km/h (2 Bft)
09.07.2014 22:22 17,7 C 16,1 C 100 % 1005,4 hPa 0,0 l/m 0 min 0 min 0,0 UV-I 0 W/m 10,5 km/h (2 Bft)
09.07.2014 22:24 17,7 C 16,1 C 100 % 1005,4 hPa 0,0 l/m 0 min 0 min 0,0 UV-I 0 W/m 8,4 km/h (2 Bft)
09.07.2014 22:26 17,7 C 16,1 C 100 % 1005,4 hPa 0,0 l/m 0 min 0 min 0,0 UV-I 0 W/m 10,5 km/h (2 Bft)
09.07.2014 22:28 17,7 C 16,1 C 100 % 1005,4 hPa 0,0 l/m 0 min 0 min 0,0 UV-I 0 W/m 12,6 km/h (3 Bft)
09.07.2014 22:30 17,7 C 16,1 C 100 % 1005,4 hPa 0,0 l/m 0 min 0 min 0,0 UV-I 0 W/m 16,7 km/h (3 Bft)
09.07.2014 22:32 17,7 C 16,1 C 100 % 1005,4 hPa 0,0 l/m 0 min 0 min 0,0 UV-I 0 W/m 14,6 km/h (3 Bft)
09.07.2014 22:34 17,7 C 16,1 C 100 % 1005,4 hPa 0,0 l/m 0 min 0 min 0,0 UV-I 0 W/m 6,3 km/h (2 Bft)
09.07.2014 22:36 17,7 C 16,1 C 100 % 1005,4 hPa 0,0 l/m 0 min 0 min 0,0 UV-I 0 W/m 12,6 km/h (3 Bft)
09.07.2014 22:38 17,7 C 16,1 C 100 % 1005,4 hPa 0,0 l/m 0 min 0 min 0,0 UV-I 0 W/m 10,5 km/h (2 Bft)
09.07.2014 22:40 17,7 C 16,1 C 100 % 1005,4 hPa 0,0 l/m 0 min 0 min 0,0 UV-I 0 W/m 8,4 km/h (2 Bft)
09.07.2014 22:42 17,7 C 16,1 C 100 % 1005,3 hPa 0,0 l/m 0 min 0 min 0,0 UV-I 0 W/m 14,6 km/h (3 Bft)
09.07.2014 22:44 17,7 C 16,1 C 100 % 1005,2 hPa 0,0 l/m 0 min 0 min 0,0 UV-I 0 W/m 14,6 km/h (3 Bft)
09.07.2014 22:46 17,7 C 16,1 C 100 % 1005,3 hPa 0,0 l/m 0 min 0 min 0,0 UV-I 0 W/m 12,6 km/h (3 Bft)
09.07.2014 22:48 17,7 C 16,1 C 100 % 1005,2 hPa 0,0 l/m 0 min 0 min 0,0 UV-I 0 W/m 14,6 km/h (3 Bft)
09.07.2014 22:50 17,7 C 16,1 C 100 % 1005,2 hPa 0,0 l/m 0 min 0 min 0,0 UV-I 0 W/m 8,4 km/h (2 Bft)
09.07.2014 22:52 17,7 C 16,1 C 100 % 1005,3 hPa 0,0 l/m 0 min 0 min 0,0 UV-I 0 W/m 4,2 km/h (1 Bft)
09.07.2014 22:54 17,7 C 16,7 C 100 % 1005,3 hPa 0,0 l/m 0 min 0 min 0,0 UV-I 0 W/m 12,6 km/h (3 Bft)
09.07.2014 22:56 17,7 C 16,7 C 100 % 1005,3 hPa 0,0 l/m 0 min 0 min 0,0 UV-I 0 W/m 14,6 km/h (3 Bft)
09.07.2014 22:58 17,8 C 16,7 C 100 % 1005,3 hPa 0,2 l/m 0 min 0 min 0,0 UV-I 0 W/m 12,6 km/h (3 Bft)
09.07.2014 23:00 17,8 C 16,7 C 100 % 1005,3 hPa 0,0 l/m 0 min 0 min 0,0 UV-I 0 W/m 12,6 km/h (3 Bft)
09.07.2014 23:02 17,8 C 16,7 C 100 % 1005,3 hPa 0,0 l/m 0 min 0 min 0,0 UV-I 0 W/m 12,6 km/h (3 Bft)
09.07.2014 23:04 17,8 C 16,7 C 100 % 1005,3 hPa 0,0 l/m 0 min 0 min 0,0 UV-I 0 W/m 10,5 km/h (2 Bft)
09.07.2014 23:06 17,8 C 16,7 C 100 % 1005,4 hPa 0,0 l/m 0 min 0 min 0,0 UV-I 0 W/m 8,4 km/h (2 Bft)
09.07.2014 23:08 17,8 C 16,7 C 100 % 1005,4 hPa 0,0 l/m 0 min 0 min 0,0 UV-I 0 W/m 16,7 km/h (3 Bft)
09.07.2014 23:10 17,8 C 16,7 C 100 % 1005,4 hPa 0,0 l/m 0 min 0 min 0,0 UV-I 0 W/m 10,5 km/h (2 Bft)
09.07.2014 23:12 17,8 C 16,7 C 100 % 1005,4 hPa 0,0 l/m 0 min 0 min 0,0 UV-I 0 W/m 12,6 km/h (3 Bft)
09.07.2014 23:14 17,8 C 16,7 C 100 % 1005,4 hPa 0,0 l/m 0 min 0 min 0,0 UV-I 0 W/m 18,8 km/h (3 Bft)
09.07.2014 23:16 17,8 C 16,7 C 100 % 1005,4 hPa 0,0 l/m 0 min 0 min 0,0 UV-I 0 W/m 10,5 km/h (2 Bft)
09.07.2014 23:18 17,8 C 16,7 C 100 % 1005,4 hPa 0,0 l/m 0 min 0 min 0,0 UV-I 0 W/m 10,5 km/h (2 Bft)
09.07.2014 23:20 17,8 C 16,7 C 100 % 1005,4 hPa 0,0 l/m 0 min 0 min 0,0 UV-I 0 W/m 10,5 km/h (2 Bft)
09.07.2014 23:22 17,9 C 16,7 C 100 % 1005,4 hPa 0,0 l/m 0 min 0 min 0,0 UV-I 0 W/m 16,7 km/h (3 Bft)
09.07.2014 23:24 17,9 C 16,7 C 100 % 1005,4 hPa 0,0 l/m 0 min 0 min 0,0 UV-I 0 W/m 10,5 km/h (2 Bft)
09.07.2014 23:26 17,9 C 16,7 C 100 % 1005,3 hPa 0,0 l/m 0 min 0 min 0,0 UV-I 0 W/m 12,6 km/h (3 Bft)
09.07.2014 23:28 17,9 C 16,7 C 100 % 1005,4 hPa 0,0 l/m 0 min 0 min 0,0 UV-I 0 W/m 14,6 km/h (3 Bft)
09.07.2014 23:30 17,9 C 16,7 C 100 % 1005,2 hPa 0,0 l/m 0 min 0 min 0,0 UV-I 0 W/m 14,6 km/h (3 Bft)
09.07.2014 23:32 17,9 C 16,7 C 100 % 1005,3 hPa 0,0 l/m 0 min 0 min 0,0 UV-I 0 W/m 14,6 km/h (3 Bft)
09.07.2014 23:34 17,9 C 16,7 C 100 % 1005,3 hPa 0,0 l/m 0 min 0 min 0,0 UV-I 0 W/m 16,7 km/h (3 Bft)
09.07.2014 23:36 17,9 C 16,7 C 100 % 1005,3 hPa 0,0 l/m 0 min 0 min 0,0 UV-I 0 W/m 16,7 km/h (3 Bft)
09.07.2014 23:38 17,9 C 16,7 C 100 % 1005,3 hPa 0,0 l/m 0 min 0 min 0,0 UV-I 0 W/m 14,6 km/h (3 Bft)
09.07.2014 23:40 17,9 C 16,7 C 100 % 1005,3 hPa 0,0 l/m 0 min 0 min 0,0 UV-I 0 W/m 14,6 km/h (3 Bft)
09.07.2014 23:42 18,0 C 16,7 C 100 % 1005,3 hPa 0,0 l/m 0 min 0 min 0,0 UV-I 0 W/m 14,6 km/h (3 Bft)
09.07.2014 23:44 18,0 C 16,7 C 100 % 1005,3 hPa 0,0 l/m 0 min 0 min 0,0 UV-I 0 W/m 10,5 km/h (2 Bft)
09.07.2014 23:46 18,0 C 16,7 C 100 % 1005,4 hPa 0,0 l/m 0 min 0 min 0,0 UV-I 0 W/m 16,7 km/h (3 Bft)
09.07.2014 23:48 18,0 C 16,7 C 100 % 1005,4 hPa 0,0 l/m 0 min 0 min 0,0 UV-I 0 W/m 14,6 km/h (3 Bft)
09.07.2014 23:50 18,1 C 16,7 C 100 % 1005,4 hPa 0,0 l/m 0 min 0 min 0,0 UV-I 0 W/m 12,6 km/h (3 Bft)
09.07.2014 23:52 18,1 C 16,7 C 100 % 1005,4 hPa 0,0 l/m 0 min 0 min 0,0 UV-I 0 W/m 12,6 km/h (3 Bft)
09.07.2014 23:54 18,1 C 16,7 C 100 % 1005,5 hPa 0,0 l/m 0 min 0 min 0,0 UV-I 0 W/m 14,6 km/h (3 Bft)
09.07.2014 23:56 18,1 C 16,7 C 100 % 1005,4 hPa 0,0 l/m 0 min 0 min 0,0 UV-I 0 W/m 12,6 km/h (3 Bft)
09.07.2014 23:58 18,1 C 16,7 C 100 % 1005,4 hPa 0,0 l/m 0 min 0 min 0,0 UV-I 0 W/m 14,6 km/h (3 Bft)
_ Min-Zeit 05:16 04:50 00:00 17:20 - - - - - 01:02
Minimum _ 12,0 C 11,1 C 98 % 1004,1 hPa - - - - - 0,0 km/h (0 Bft)
_ Max-Zeit 23:50 22:54 12:44 00:05 20:52 00:00 00:00 00:00 14:08 10:52
Maximum _ 18,1 C 16,7 C 100 % 1011,2 hPa 1,2 l/m 0 min 2 min 0,0 UV-I 104 W/m 39,7 km/h
NW (6 Bft)
Durchschnitt _ 14,3 C 13,4 C 99 % 1007,0 hPa #34,8 l/m #0 min. #17:41 h 0,0 UV-I 42 W/m 17,1 km/h (3 Bft)
© 2014 W. Hausmann